﻿<?xml version="1.0" encoding="utf-8"?><gpx creator="Garmin Desktop App" version="1.1" xsi:schemaLocation="http://www.topografix.com/GPX/1/1 http://www.topografix.com/GPX/1/1/gpx.xsd http://www.garmin.com/xmlschemas/WaypointExtension/v1 http://www8.garmin.com/xmlschemas/WaypointExtensionv1.xsd http://www.garmin.com/xmlschemas/TrackPointExtension/v1 http://www.garmin.com/xmlschemas/TrackPointExtensionv1.xsd http://www.garmin.com/xmlschemas/GpxExtensions/v3 http://www8.garmin.com/xmlschemas/GpxExtensionsv3.xsd http://www.garmin.com/xmlschemas/ActivityExtension/v1 http://www8.garmin.com/xmlschemas/ActivityExtensionv1.xsd http://www.garmin.com/xmlschemas/AdventuresExtensions/v1 http://www8.garmin.com/xmlschemas/AdventuresExtensionv1.xsd http://www.garmin.com/xmlschemas/PressureExtension/v1 http://www.garmin.com/xmlschemas/PressureExtensionv1.xsd http://www.garmin.com/xmlschemas/TripExtensions/v1 http://www.garmin.com/xmlschemas/TripExtensionsv1.xsd http://www.garmin.com/xmlschemas/TripMetaDataExtensions/v1 http://www.garmin.com/xmlschemas/TripMetaDataExtensionsv1.xsd http://www.garmin.com/xmlschemas/ViaPointTransportationModeExtensions/v1 http://www.garmin.com/xmlschemas/ViaPointTransportationModeExtensionsv1.xsd http://www.garmin.com/xmlschemas/CreationTimeExtension/v1 http://www.garmin.com/xmlschemas/CreationTimeExtensionsv1.xsd http://www.garmin.com/xmlschemas/AccelerationExtension/v1 http://www.garmin.com/xmlschemas/AccelerationExtensionv1.xsd http://www.garmin.com/xmlschemas/PowerExtension/v1 http://www.garmin.com/xmlschemas/PowerExtensionv1.xsd http://www.garmin.com/xmlschemas/VideoExtension/v1 http://www.garmin.com/xmlschemas/VideoExtensionv1.xsd" xmlns="http://www.topografix.com/GPX/1/1" xmlns:xsi="http://www.w3.org/2001/XMLSchema-instance" xmlns:wptx1="http://www.garmin.com/xmlschemas/WaypointExtension/v1" xmlns:gpxtrx="http://www.garmin.com/xmlschemas/GpxExtensions/v3" xmlns:gpxtpx="http://www.garmin.com/xmlschemas/TrackPointExtension/v1" xmlns:gpxx="http://www.garmin.com/xmlschemas/GpxExtensions/v3" xmlns:trp="http://www.garmin.com/xmlschemas/TripExtensions/v1" xmlns:adv="http://www.garmin.com/xmlschemas/AdventuresExtensions/v1" xmlns:prs="http://www.garmin.com/xmlschemas/PressureExtension/v1" xmlns:tmd="http://www.garmin.com/xmlschemas/TripMetaDataExtensions/v1" xmlns:vptm="http://www.garmin.com/xmlschemas/ViaPointTransportationModeExtensions/v1" xmlns:ctx="http://www.garmin.com/xmlschemas/CreationTimeExtension/v1" xmlns:gpxacc="http://www.garmin.com/xmlschemas/AccelerationExtension/v1" xmlns:gpxpx="http://www.garmin.com/xmlschemas/PowerExtension/v1" xmlns:vidx1="http://www.garmin.com/xmlschemas/VideoExtension/v1">

  <metadata>
    <link href="http://www.garmin.com">
      <text>Garmin International</text>
    </link>
    <time>2021-12-19T08:40:53Z</time>
    <bounds maxlat="51.399753978475928" maxlon="4.413176039233804" minlat="51.349641932174563" minlon="4.338435865938664" />
  </metadata>

  <trk>
    <name>monikenhofstraat heusschen bollard 22 km</name>
    <extensions>
      <gpxx:TrackExtension>
        <gpxx:DisplayColor>Yellow</gpxx:DisplayColor>
      </gpxx:TrackExtension>
    </extensions>
    <trkseg>
      <trkpt lat="51.350397896021605" lon="4.347242061048746">
        <ele>16.199999999999999</ele>
        <time>2021-12-18T09:51:15Z</time>
      </trkpt>
      <trkpt lat="51.350588668137789" lon="4.347075512632728">
        <ele>15.949999999999999</ele>
        <time>2021-12-18T09:51:36Z</time>
      </trkpt>
      <trkpt lat="51.350796790793538" lon="4.34695003554225">
        <ele>15.630000000000001</ele>
        <time>2021-12-18T09:51:53Z</time>
      </trkpt>
      <trkpt lat="51.350996196269989" lon="4.34681324288249">
        <ele>15.33</ele>
        <time>2021-12-18T09:52:12Z</time>
      </trkpt>
      <trkpt lat="51.35118487291038" lon="4.346717186272144">
        <ele>15.01</ele>
        <time>2021-12-18T09:52:29Z</time>
      </trkpt>
      <trkpt lat="51.351373046636581" lon="4.346651891246438">
        <ele>14.710000000000001</ele>
        <time>2021-12-18T09:52:43Z</time>
      </trkpt>
      <trkpt lat="51.351439598947763" lon="4.346628421917558">
        <ele>14.6</ele>
        <time>2021-12-18T09:52:48Z</time>
      </trkpt>
      <trkpt lat="51.351653672754765" lon="4.346498250961304">
        <ele>15.68</ele>
        <time>2021-12-18T09:53:04Z</time>
      </trkpt>
      <trkpt lat="51.351804966107011" lon="4.346434967592359">
        <ele>11.93</ele>
        <time>2021-12-18T09:53:17Z</time>
      </trkpt>
      <trkpt lat="51.351813934743404" lon="4.346428429707885">
        <ele>16.859999999999999</ele>
        <time>2021-12-18T09:53:18Z</time>
      </trkpt>
      <trkpt lat="51.351830447092652" lon="4.346416527405381">
        <ele>16.850000000000001</ele>
        <time>2021-12-18T09:53:19Z</time>
      </trkpt>
      <trkpt lat="51.352026499807835" lon="4.346265317872167">
        <ele>16.579999999999998</ele>
        <time>2021-12-18T09:53:34Z</time>
      </trkpt>
      <trkpt lat="51.352230347692966" lon="4.34613598510623">
        <ele>16.350000000000001</ele>
        <time>2021-12-18T09:53:51Z</time>
      </trkpt>
      <trkpt lat="51.352419191971421" lon="4.346025595441461">
        <ele>16.190000000000001</ele>
        <time>2021-12-18T09:54:07Z</time>
      </trkpt>
      <trkpt lat="51.352605521678925" lon="4.345910511910915">
        <ele>15.99</ele>
        <time>2021-12-18T09:54:23Z</time>
      </trkpt>
      <trkpt lat="51.352710966020823" lon="4.345856113359332">
        <ele>15.869999999999999</ele>
        <time>2021-12-18T09:54:36Z</time>
      </trkpt>
      <trkpt lat="51.352898050099611" lon="4.345759218558669">
        <ele>15.640000000000001</ele>
        <time>2021-12-18T09:54:53Z</time>
      </trkpt>
      <trkpt lat="51.353057222440839" lon="4.345672046765685">
        <ele>15.43</ele>
        <time>2021-12-18T09:55:07Z</time>
      </trkpt>
      <trkpt lat="51.353269536048174" lon="4.345598286017776">
        <ele>15.130000000000001</ele>
        <time>2021-12-18T09:55:25Z</time>
      </trkpt>
      <trkpt lat="51.353484112769365" lon="4.34550809673965">
        <ele>14.85</ele>
        <time>2021-12-18T09:55:41Z</time>
      </trkpt>
      <trkpt lat="51.353637501597404" lon="4.345452776178718">
        <ele>14.529999999999999</ele>
        <time>2021-12-18T09:55:57Z</time>
      </trkpt>
      <trkpt lat="51.353716040030122" lon="4.345443556085229">
        <ele>14.41</ele>
        <time>2021-12-18T09:56:04Z</time>
      </trkpt>
      <trkpt lat="51.353747975081205" lon="4.345439281314611">
        <ele>14.359999999999999</ele>
        <time>2021-12-18T09:56:07Z</time>
      </trkpt>
      <trkpt lat="51.353974789381027" lon="4.345376500859857">
        <ele>13.960000000000001</ele>
        <time>2021-12-18T09:56:25Z</time>
      </trkpt>
      <trkpt lat="51.354024074971676" lon="4.34531070291996">
        <ele>13.83</ele>
        <time>2021-12-18T09:56:30Z</time>
      </trkpt>
      <trkpt lat="51.354060117155313" lon="4.345036949962378">
        <ele>13.5</ele>
        <time>2021-12-18T09:56:44Z</time>
      </trkpt>
      <trkpt lat="51.35403748601675" lon="4.344641827046871">
        <ele>13.140000000000001</ele>
        <time>2021-12-18T09:57:01Z</time>
      </trkpt>
      <trkpt lat="51.353838499635458" lon="4.343363922089338">
        <ele>13.029999999999999</ele>
        <time>2021-12-18T09:57:07Z</time>
      </trkpt>
      <trkpt lat="51.352917747572064" lon="4.34348663315177">
        <ele>12.92</ele>
        <time>2021-12-18T09:57:12Z</time>
      </trkpt>
      <trkpt lat="51.352971643209457" lon="4.34381159953773">
        <ele>12.619999999999999</ele>
        <time>2021-12-18T09:57:28Z</time>
      </trkpt>
      <trkpt lat="51.35279193520546" lon="4.343659970909357">
        <ele>12.42</ele>
        <time>2021-12-18T09:57:41Z</time>
      </trkpt>
      <trkpt lat="51.352895284071565" lon="4.34342167340219">
        <ele>12.23</ele>
        <time>2021-12-18T09:57:54Z</time>
      </trkpt>
      <trkpt lat="51.353893149644136" lon="4.343266692012548">
        <ele>11.619999999999999</ele>
        <time>2021-12-18T09:58:34Z</time>
      </trkpt>
      <trkpt lat="51.355627616867423" lon="4.342838460579515">
        <ele>5.8</ele>
        <time>2021-12-18T10:00:55Z</time>
      </trkpt>
      <trkpt lat="51.355689894407988" lon="4.343274235725403">
        <ele>5.13</ele>
        <time>2021-12-18T10:01:18Z</time>
      </trkpt>
      <trkpt lat="51.355664245784283" lon="4.343923917040229">
        <ele>4.76</ele>
        <time>2021-12-18T10:01:44Z</time>
      </trkpt>
      <trkpt lat="51.355621414259076" lon="4.346365565434098">
        <ele>2.73</ele>
        <time>2021-12-18T10:03:50Z</time>
      </trkpt>
      <trkpt lat="51.355806738138199" lon="4.346307897940278">
        <ele>2.73</ele>
        <time>2021-12-18T10:04:05Z</time>
      </trkpt>
      <trkpt lat="51.355997258797288" lon="4.346263976767659">
        <ele>2.72</ele>
        <time>2021-12-18T10:04:18Z</time>
      </trkpt>
      <trkpt lat="51.356159197166562" lon="4.346276801079512">
        <ele>2.73</ele>
        <time>2021-12-18T10:04:31Z</time>
      </trkpt>
      <trkpt lat="51.356314849108458" lon="4.346275208517909">
        <ele>2.73</ele>
        <time>2021-12-18T10:04:42Z</time>
      </trkpt>
      <trkpt lat="51.356795215979218" lon="4.346321057528257">
        <ele>2.74</ele>
        <time>2021-12-18T10:05:09Z</time>
      </trkpt>
      <trkpt lat="51.35712118819356" lon="4.346401607617736">
        <ele>2.76</ele>
        <time>2021-12-18T10:05:21Z</time>
      </trkpt>
      <trkpt lat="51.357418494299054" lon="4.346415689215064">
        <ele>2.75</ele>
        <time>2021-12-18T10:05:32Z</time>
      </trkpt>
      <trkpt lat="51.357422433793545" lon="4.346434632316232">
        <ele>2.75</ele>
        <time>2021-12-18T10:05:33Z</time>
      </trkpt>
      <trkpt lat="51.357647152617574" lon="4.346477631479502">
        <ele>2.75</ele>
        <time>2021-12-18T10:05:41Z</time>
      </trkpt>
      <trkpt lat="51.357966251671314" lon="4.346530437469482">
        <ele>3.6</ele>
        <time>2021-12-18T10:05:52Z</time>
      </trkpt>
      <trkpt lat="51.35795527137816" lon="4.346561031416059">
        <ele>3.59</ele>
        <time>2021-12-18T10:05:54Z</time>
      </trkpt>
      <trkpt lat="51.358141852542758" lon="4.346577795222402">
        <ele>4.46</ele>
        <time>2021-12-18T10:06:00Z</time>
      </trkpt>
      <trkpt lat="51.358160125091672" lon="4.346492635086179">
        <ele>4.42</ele>
        <time>2021-12-18T10:06:03Z</time>
      </trkpt>
      <trkpt lat="51.358172362670302" lon="4.346420718356967">
        <ele>4.42</ele>
        <time>2021-12-18T10:06:05Z</time>
      </trkpt>
      <trkpt lat="51.358169261366129" lon="4.346409235149622">
        <ele>4.42</ele>
        <time>2021-12-18T10:06:06Z</time>
      </trkpt>
      <trkpt lat="51.358156520873308" lon="4.346233550459147">
        <ele>4.41</ele>
        <time>2021-12-18T10:06:12Z</time>
      </trkpt>
      <trkpt lat="51.358047388494015" lon="4.345685876905918">
        <ele>4.48</ele>
        <time>2021-12-18T10:06:34Z</time>
      </trkpt>
      <trkpt lat="51.358024924993515" lon="4.345399383455515">
        <ele>4.41</ele>
        <time>2021-12-18T10:06:47Z</time>
      </trkpt>
      <trkpt lat="51.357994163408875" lon="4.345249431207776">
        <ele>4.42</ele>
        <time>2021-12-18T10:06:52Z</time>
      </trkpt>
      <trkpt lat="51.357994331046939" lon="4.345233589410782">
        <ele>4.42</ele>
        <time>2021-12-18T10:06:53Z</time>
      </trkpt>
      <trkpt lat="51.35788687504828" lon="4.344886913895607">
        <ele>4.43</ele>
        <time>2021-12-18T10:07:12Z</time>
      </trkpt>
      <trkpt lat="51.357849324122071" lon="4.344518864527345">
        <ele>4.42</ele>
        <time>2021-12-18T10:07:25Z</time>
      </trkpt>
      <trkpt lat="51.357724517583847" lon="4.344008406624198">
        <ele>4.45</ele>
        <time>2021-12-18T10:07:56Z</time>
      </trkpt>
      <trkpt lat="51.35765427723527" lon="4.343059239909053">
        <ele>4.44</ele>
        <time>2021-12-18T10:08:41Z</time>
      </trkpt>
      <trkpt lat="51.357648745179176" lon="4.343018671497703">
        <ele>4.43</ele>
        <time>2021-12-18T10:08:42Z</time>
      </trkpt>
      <trkpt lat="51.357642039656639" lon="4.34235256165266">
        <ele>4.4</ele>
        <time>2021-12-18T10:09:09Z</time>
      </trkpt>
      <trkpt lat="51.357659557834268" lon="4.341989373788238">
        <ele>4.44</ele>
        <time>2021-12-18T10:09:23Z</time>
      </trkpt>
      <trkpt lat="51.357633909210563" lon="4.341463409364224">
        <ele>2.24</ele>
        <time>2021-12-18T10:09:50Z</time>
      </trkpt>
      <trkpt lat="51.357679758220911" lon="4.341025454923511">
        <ele>2.26</ele>
        <time>2021-12-18T10:10:09Z</time>
      </trkpt>
      <trkpt lat="51.357793919742107" lon="4.341023862361908">
        <ele>2.25</ele>
        <time>2021-12-18T10:10:28Z</time>
      </trkpt>
      <trkpt lat="51.357988715171814" lon="4.340864941477776">
        <ele>2.23</ele>
        <time>2021-12-18T10:10:47Z</time>
      </trkpt>
      <trkpt lat="51.358148138970137" lon="4.340821607038379">
        <ele>2.23</ele>
        <time>2021-12-18T10:11:05Z</time>
      </trkpt>
      <trkpt lat="51.358770411461592" lon="4.340720856562257">
        <ele>2.24</ele>
        <time>2021-12-18T10:11:44Z</time>
      </trkpt>
      <trkpt lat="51.360213356092572" lon="4.340406870469451">
        <ele>2.29</ele>
        <time>2021-12-18T10:12:28Z</time>
      </trkpt>
      <trkpt lat="51.360289547592402" lon="4.340410642325878">
        <ele>4.66</ele>
        <time>2021-12-18T10:12:31Z</time>
      </trkpt>
      <trkpt lat="51.360647538676858" lon="4.340331517159939">
        <ele>4.64</ele>
        <time>2021-12-18T10:12:40Z</time>
      </trkpt>
      <trkpt lat="51.360976025462151" lon="4.340248284861445">
        <ele>4.52</ele>
        <time>2021-12-18T10:12:50Z</time>
      </trkpt>
      <trkpt lat="51.361111225560308" lon="4.340204782783985">
        <ele>4.54</ele>
        <time>2021-12-18T10:12:54Z</time>
      </trkpt>
      <trkpt lat="51.361147267743945" lon="4.340192377567291">
        <ele>4.55</ele>
        <time>2021-12-18T10:12:55Z</time>
      </trkpt>
      <trkpt lat="51.361188339069486" lon="4.340174440294504">
        <ele>4.55</ele>
        <time>2021-12-18T10:12:56Z</time>
      </trkpt>
      <trkpt lat="51.361223207786679" lon="4.3401522282511">
        <ele>4.53</ele>
        <time>2021-12-18T10:12:57Z</time>
      </trkpt>
      <trkpt lat="51.361234439536929" lon="4.340151557698846">
        <ele>4.55</ele>
        <time>2021-12-18T10:12:58Z</time>
      </trkpt>
      <trkpt lat="51.361285066232085" lon="4.340107887983322">
        <ele>4.55</ele>
        <time>2021-12-18T10:12:59Z</time>
      </trkpt>
      <trkpt lat="51.361275007948279" lon="4.340120377019048">
        <ele>4.56</ele>
        <time>2021-12-18T10:13:00Z</time>
      </trkpt>
      <trkpt lat="51.361323622986674" lon="4.340102188289166">
        <ele>4.57</ele>
        <time>2021-12-18T10:13:01Z</time>
      </trkpt>
      <trkpt lat="51.361314989626408" lon="4.340122137218714">
        <ele>4.58</ele>
        <time>2021-12-18T10:13:02Z</time>
      </trkpt>
      <trkpt lat="51.361620258539915" lon="4.340013256296516">
        <ele>4.59</ele>
        <time>2021-12-18T10:13:11Z</time>
      </trkpt>
      <trkpt lat="51.361650349572301" lon="4.339982662349939">
        <ele>4.59</ele>
        <time>2021-12-18T10:13:12Z</time>
      </trkpt>
      <trkpt lat="51.362111605703831" lon="4.339733133092523">
        <ele>4.58</ele>
        <time>2021-12-18T10:13:23Z</time>
      </trkpt>
      <trkpt lat="51.362638827413321" lon="4.339600699022412">
        <ele>4.62</ele>
        <time>2021-12-18T10:13:35Z</time>
      </trkpt>
      <trkpt lat="51.362644946202636" lon="4.339580498635769">
        <ele>4.62</ele>
        <time>2021-12-18T10:13:36Z</time>
      </trkpt>
      <trkpt lat="51.36268375441432" lon="4.339589970186353">
        <ele>4.62</ele>
        <time>2021-12-18T10:13:37Z</time>
      </trkpt>
      <trkpt lat="51.362738907337189" lon="4.339572116732597">
        <ele>4.62</ele>
        <time>2021-12-18T10:13:38Z</time>
      </trkpt>
      <trkpt lat="51.362816020846367" lon="4.33959131129086">
        <ele>4.62</ele>
        <time>2021-12-18T10:13:39Z</time>
      </trkpt>
      <trkpt lat="51.362846866250038" lon="4.339593490585685">
        <ele>4.61</ele>
        <time>2021-12-18T10:13:40Z</time>
      </trkpt>
      <trkpt lat="51.363309966400266" lon="4.339486788958311">
        <ele>4.56</ele>
        <time>2021-12-18T10:13:49Z</time>
      </trkpt>
      <trkpt lat="51.36335170827806" lon="4.339480670168996">
        <ele>4.54</ele>
        <time>2021-12-18T10:13:50Z</time>
      </trkpt>
      <trkpt lat="51.363702993839979" lon="4.339374052360654">
        <ele>4.44</ele>
        <time>2021-12-18T10:13:56Z</time>
      </trkpt>
      <trkpt lat="51.363738114014268" lon="4.339340273290873">
        <ele>4.45</ele>
        <time>2021-12-18T10:13:57Z</time>
      </trkpt>
      <trkpt lat="51.363936262205243" lon="4.339206665754318">
        <ele>4.46</ele>
        <time>2021-12-18T10:14:00Z</time>
      </trkpt>
      <trkpt lat="51.364181516692042" lon="4.33915838599205">
        <ele>4.49</ele>
        <time>2021-12-18T10:14:06Z</time>
      </trkpt>
      <trkpt lat="51.364246644079685" lon="4.339172216132283">
        <ele>4.48</ele>
        <time>2021-12-18T10:14:08Z</time>
      </trkpt>
      <trkpt lat="51.36435879394412" lon="4.339103987440467">
        <ele>4.45</ele>
        <time>2021-12-18T10:14:15Z</time>
      </trkpt>
      <trkpt lat="51.364595079794526" lon="4.338987143710256">
        <ele>4.41</ele>
        <time>2021-12-18T10:14:26Z</time>
      </trkpt>
      <trkpt lat="51.364805633202195" lon="4.338935175910592">
        <ele>4.42</ele>
        <time>2021-12-18T10:14:44Z</time>
      </trkpt>
      <trkpt lat="51.366026876494288" lon="4.33849822729826">
        <ele>4.4</ele>
        <time>2021-12-18T10:16:13Z</time>
      </trkpt>
      <trkpt lat="51.366246566176414" lon="4.338506357744336">
        <ele>4.37</ele>
        <time>2021-12-18T10:16:30Z</time>
      </trkpt>
      <trkpt lat="51.366541860625148" lon="4.338435865938664">
        <ele>4.37</ele>
        <time>2021-12-18T10:16:49Z</time>
      </trkpt>
      <trkpt lat="51.366602042689919" lon="4.338624207302928">
        <ele>4.29</ele>
        <time>2021-12-18T10:17:04Z</time>
      </trkpt>
      <trkpt lat="51.366641186177731" lon="4.338750522583723">
        <ele>4.25</ele>
        <time>2021-12-18T10:17:12Z</time>
      </trkpt>
      <trkpt lat="51.366700865328312" lon="4.338997285813093">
        <ele>4.25</ele>
        <time>2021-12-18T10:17:23Z</time>
      </trkpt>
      <trkpt lat="51.366905970498919" lon="4.339540684595704">
        <ele>4.22</ele>
        <time>2021-12-18T10:17:49Z</time>
      </trkpt>
      <trkpt lat="51.367020467296243" lon="4.339775210246444">
        <ele>4.14</ele>
        <time>2021-12-18T10:18:07Z</time>
      </trkpt>
      <trkpt lat="51.367216017097235" lon="4.34012783691287">
        <ele>4.09</ele>
        <time>2021-12-18T10:18:25Z</time>
      </trkpt>
      <trkpt lat="51.367433359846473" lon="4.340164633467794">
        <ele>4.05</ele>
        <time>2021-12-18T10:18:42Z</time>
      </trkpt>
      <trkpt lat="51.367456410080194" lon="4.340160693973303">
        <ele>4.05</ele>
        <time>2021-12-18T10:18:43Z</time>
      </trkpt>
      <trkpt lat="51.367976926267147" lon="4.339929521083832">
        <ele>4.94</ele>
        <time>2021-12-18T10:19:27Z</time>
      </trkpt>
      <trkpt lat="51.368244811892509" lon="4.339844528585672">
        <ele>5.16</ele>
        <time>2021-12-18T10:22:07Z</time>
      </trkpt>
      <trkpt lat="51.368751581758261" lon="4.339707484468818">
        <ele>2.62</ele>
        <time>2021-12-18T10:22:25Z</time>
      </trkpt>
      <trkpt lat="51.369011839851737" lon="4.339556358754635">
        <ele>2.63</ele>
        <time>2021-12-18T10:22:32Z</time>
      </trkpt>
      <trkpt lat="51.369105130434036" lon="4.339541522786021">
        <ele>2.62</ele>
        <time>2021-12-18T10:22:34Z</time>
      </trkpt>
      <trkpt lat="51.369152488186955" lon="4.339523920789361">
        <ele>2.65</ele>
        <time>2021-12-18T10:22:35Z</time>
      </trkpt>
      <trkpt lat="51.369806276634336" lon="4.339297190308571">
        <ele>5.11</ele>
        <time>2021-12-18T10:22:50Z</time>
      </trkpt>
      <trkpt lat="51.369857741519809" lon="4.339290568605065">
        <ele>5.11</ele>
        <time>2021-12-18T10:22:51Z</time>
      </trkpt>
      <trkpt lat="51.370226293802261" lon="4.339125948026776">
        <ele>5.11</ele>
        <time>2021-12-18T10:22:58Z</time>
      </trkpt>
      <trkpt lat="51.37026728130877" lon="4.339141035452485">
        <ele>5.11</ele>
        <time>2021-12-18T10:22:59Z</time>
      </trkpt>
      <trkpt lat="51.370321679860353" lon="4.339109351858497">
        <ele>5.11</ele>
        <time>2021-12-18T10:23:00Z</time>
      </trkpt>
      <trkpt lat="51.370722837746143" lon="4.338980689644814">
        <ele>5.12</ele>
        <time>2021-12-18T10:23:07Z</time>
      </trkpt>
      <trkpt lat="51.370791736990213" lon="4.338957136496902">
        <ele>5.12</ele>
        <time>2021-12-18T10:23:08Z</time>
      </trkpt>
      <trkpt lat="51.370860552415252" lon="4.338934840634465">
        <ele>5.12</ele>
        <time>2021-12-18T10:23:09Z</time>
      </trkpt>
      <trkpt lat="51.370841944590211" lon="4.338927045464516">
        <ele>5.11</ele>
        <time>2021-12-18T10:23:10Z</time>
      </trkpt>
      <trkpt lat="51.370907407253981" lon="4.338905587792397">
        <ele>5.11</ele>
        <time>2021-12-18T10:23:11Z</time>
      </trkpt>
      <trkpt lat="51.370964739471674" lon="4.338875664398074">
        <ele>5.11</ele>
        <time>2021-12-18T10:23:12Z</time>
      </trkpt>
      <trkpt lat="51.371533954516053" lon="4.338614651933312">
        <ele>5.94</ele>
        <time>2021-12-18T10:23:42Z</time>
      </trkpt>
      <trkpt lat="51.371795888990164" lon="4.338546842336655">
        <ele>5.94</ele>
        <time>2021-12-18T10:23:56Z</time>
      </trkpt>
      <trkpt lat="51.371977860108018" lon="4.338454054668546">
        <ele>5.94</ele>
        <time>2021-12-18T10:24:14Z</time>
      </trkpt>
      <trkpt lat="51.371996970847249" lon="4.338457072153688">
        <ele>5.95</ele>
        <time>2021-12-18T10:24:16Z</time>
      </trkpt>
      <trkpt lat="51.372085232287645" lon="4.338620770722628">
        <ele>6.74</ele>
        <time>2021-12-18T10:24:29Z</time>
      </trkpt>
      <trkpt lat="51.372273741289973" lon="4.339162493124604">
        <ele>3.93</ele>
        <time>2021-12-18T10:24:58Z</time>
      </trkpt>
      <trkpt lat="51.372461328282952" lon="4.339456027373672">
        <ele>3.89</ele>
        <time>2021-12-18T10:25:13Z</time>
      </trkpt>
      <trkpt lat="51.372654195874929" lon="4.33986984193325">
        <ele>3.89</ele>
        <time>2021-12-18T10:25:33Z</time>
      </trkpt>
      <trkpt lat="51.372775482013822" lon="4.339999845251441">
        <ele>6.23</ele>
        <time>2021-12-18T10:25:41Z</time>
      </trkpt>
      <trkpt lat="51.372863743454218" lon="4.340108809992671">
        <ele>6.18</ele>
        <time>2021-12-18T10:25:58Z</time>
      </trkpt>
      <trkpt lat="51.372885871678591" lon="4.340116353705525">
        <ele>6.18</ele>
        <time>2021-12-18T10:26:00Z</time>
      </trkpt>
      <trkpt lat="51.372963488101959" lon="4.340236047282815">
        <ele>6.18</ele>
        <time>2021-12-18T10:26:05Z</time>
      </trkpt>
      <trkpt lat="51.373172113671899" lon="4.340375186875463">
        <ele>6.17</ele>
        <time>2021-12-18T10:26:23Z</time>
      </trkpt>
      <trkpt lat="51.373424157500267" lon="4.340499909594655">
        <ele>6.17</ele>
        <time>2021-12-18T10:26:41Z</time>
      </trkpt>
      <trkpt lat="51.373537397012115" lon="4.340530838817358">
        <ele>6.17</ele>
        <time>2021-12-18T10:26:49Z</time>
      </trkpt>
      <trkpt lat="51.373645272105932" lon="4.340608790516853">
        <ele>6.16</ele>
        <time>2021-12-18T10:27:03Z</time>
      </trkpt>
      <trkpt lat="51.373789524659514" lon="4.340657237917185">
        <ele>6.16</ele>
        <time>2021-12-18T10:27:09Z</time>
      </trkpt>
      <trkpt lat="51.373960599303246" lon="4.340840298682451">
        <ele>3.91</ele>
        <time>2021-12-18T10:27:17Z</time>
      </trkpt>
      <trkpt lat="51.374001000076532" lon="4.340948676690459">
        <ele>3.92</ele>
        <time>2021-12-18T10:27:21Z</time>
      </trkpt>
      <trkpt lat="51.374138966202736" lon="4.341507330536842">
        <ele>2.9</ele>
        <time>2021-12-18T10:27:53Z</time>
      </trkpt>
      <trkpt lat="51.374152461066842" lon="4.342003120109439">
        <ele>5.35</ele>
        <time>2021-12-18T10:28:11Z</time>
      </trkpt>
      <trkpt lat="51.374184982851148" lon="4.342393716797233">
        <ele>6.97</ele>
        <time>2021-12-18T10:28:29Z</time>
      </trkpt>
      <trkpt lat="51.37439327314496" lon="4.343619989231229">
        <ele>7.71</ele>
        <time>2021-12-18T10:29:25Z</time>
      </trkpt>
      <trkpt lat="51.374731063842773" lon="4.344054255634546">
        <ele>6.59</ele>
        <time>2021-12-18T10:29:57Z</time>
      </trkpt>
      <trkpt lat="51.37488872744143" lon="4.344362458214164">
        <ele>6.58</ele>
        <time>2021-12-18T10:30:16Z</time>
      </trkpt>
      <trkpt lat="51.375037673860788" lon="4.344587763771415">
        <ele>6.49</ele>
        <time>2021-12-18T10:30:36Z</time>
      </trkpt>
      <trkpt lat="51.37526205740869" lon="4.344582231715322">
        <ele>6.47</ele>
        <time>2021-12-18T10:30:49Z</time>
      </trkpt>
      <trkpt lat="51.375309582799673" lon="4.344601090997458">
        <ele>6.49</ele>
        <time>2021-12-18T10:30:52Z</time>
      </trkpt>
      <trkpt lat="51.375396084040403" lon="4.344614669680595">
        <ele>8.77</ele>
        <time>2021-12-18T10:30:56Z</time>
      </trkpt>
      <trkpt lat="51.375527679920197" lon="4.344870317727327">
        <ele>9.48</ele>
        <time>2021-12-18T10:31:31Z</time>
      </trkpt>
      <trkpt lat="51.375535475090146" lon="4.34497207403183">
        <ele>9.4</ele>
        <time>2021-12-18T10:31:36Z</time>
      </trkpt>
      <trkpt lat="51.375559363514185" lon="4.345072992146015">
        <ele>9.390000000000001</ele>
        <time>2021-12-18T10:31:40Z</time>
      </trkpt>
      <trkpt lat="51.375639997422695" lon="4.345125546678901">
        <ele>9.27</ele>
        <time>2021-12-18T10:31:50Z</time>
      </trkpt>
      <trkpt lat="51.375656677410007" lon="4.345128061249852">
        <ele>9.26</ele>
        <time>2021-12-18T10:31:51Z</time>
      </trkpt>
      <trkpt lat="51.375806629657745" lon="4.345175167545676">
        <ele>9.18</ele>
        <time>2021-12-18T10:32:06Z</time>
      </trkpt>
      <trkpt lat="51.376456981524825" lon="4.345050696283579">
        <ele>6.33</ele>
        <time>2021-12-18T10:34:35Z</time>
      </trkpt>
      <trkpt lat="51.376608442515135" lon="4.345028651878238">
        <ele>6.1</ele>
        <time>2021-12-18T10:34:49Z</time>
      </trkpt>
      <trkpt lat="51.376777924597263" lon="4.345012474805117">
        <ele>6.01</ele>
        <time>2021-12-18T10:34:58Z</time>
      </trkpt>
      <trkpt lat="51.376982694491744" lon="4.344957070425153">
        <ele>5.96</ele>
        <time>2021-12-18T10:35:11Z</time>
      </trkpt>
      <trkpt lat="51.37730497866869" lon="4.344979617744684">
        <ele>7.12</ele>
        <time>2021-12-18T10:35:40Z</time>
      </trkpt>
      <trkpt lat="51.377391815185547" lon="4.345739688724279">
        <ele>4.5</ele>
        <time>2021-12-18T10:36:02Z</time>
      </trkpt>
      <trkpt lat="51.377424923703074" lon="4.34588729403913">
        <ele>4.45</ele>
        <time>2021-12-18T10:36:05Z</time>
      </trkpt>
      <trkpt lat="51.377424420788884" lon="4.345925766974688">
        <ele>4.43</ele>
        <time>2021-12-18T10:36:06Z</time>
      </trkpt>
      <trkpt lat="51.377435736358166" lon="4.345960384234786">
        <ele>4.41</ele>
        <time>2021-12-18T10:36:07Z</time>
      </trkpt>
      <trkpt lat="51.377446129918098" lon="4.346001790836453">
        <ele>4.39</ele>
        <time>2021-12-18T10:36:08Z</time>
      </trkpt>
      <trkpt lat="51.377457529306412" lon="4.34605099260807">
        <ele>4.37</ele>
        <time>2021-12-18T10:36:09Z</time>
      </trkpt>
      <trkpt lat="51.377513939514756" lon="4.346464388072491">
        <ele>4.17</ele>
        <time>2021-12-18T10:36:17Z</time>
      </trkpt>
      <trkpt lat="51.377522740513086" lon="4.346502693369985">
        <ele>4.13</ele>
        <time>2021-12-18T10:36:18Z</time>
      </trkpt>
      <trkpt lat="51.377542354166508" lon="4.346615932881832">
        <ele>4.06</ele>
        <time>2021-12-18T10:36:20Z</time>
      </trkpt>
      <trkpt lat="51.377714853733778" lon="4.347614133730531">
        <ele>3.45</ele>
        <time>2021-12-18T10:36:37Z</time>
      </trkpt>
      <trkpt lat="51.377722481265664" lon="4.347676495090127">
        <ele>3.4</ele>
        <time>2021-12-18T10:36:38Z</time>
      </trkpt>
      <trkpt lat="51.377726588398218" lon="4.347736844792962">
        <ele>3.35</ele>
        <time>2021-12-18T10:36:39Z</time>
      </trkpt>
      <trkpt lat="51.377702951431274" lon="4.347830470651388">
        <ele>3.29</ele>
        <time>2021-12-18T10:36:40Z</time>
      </trkpt>
      <trkpt lat="51.377729522064328" lon="4.348796149715781">
        <ele>2.43</ele>
        <time>2021-12-18T10:36:56Z</time>
      </trkpt>
      <trkpt lat="51.377701107412577" lon="4.349028496071696">
        <ele>2.03</ele>
        <time>2021-12-18T10:37:03Z</time>
      </trkpt>
      <trkpt lat="51.377704124897718" lon="4.349293867126107">
        <ele>1.36</ele>
        <time>2021-12-18T10:37:13Z</time>
      </trkpt>
      <trkpt lat="51.377701107412577" lon="4.349352708086371">
        <ele>1.15</ele>
        <time>2021-12-18T10:37:16Z</time>
      </trkpt>
      <trkpt lat="51.377881318330765" lon="4.351102346554399">
        <ele>-3.19</ele>
        <time>2021-12-18T10:38:31Z</time>
      </trkpt>
      <trkpt lat="51.377966562286019" lon="4.35144541785121">
        <ele>-3.79</ele>
        <time>2021-12-18T10:38:47Z</time>
      </trkpt>
      <trkpt lat="51.377997659146786" lon="4.35168924741447">
        <ele>-4.14</ele>
        <time>2021-12-18T10:39:00Z</time>
      </trkpt>
      <trkpt lat="51.37813663110137" lon="4.352279668673873">
        <ele>-2.82</ele>
        <time>2021-12-18T10:39:38Z</time>
      </trkpt>
      <trkpt lat="51.378191784024239" lon="4.352564821019769">
        <ele>-2.9</ele>
        <time>2021-12-18T10:39:51Z</time>
      </trkpt>
      <trkpt lat="51.378213996067643" lon="4.352667415514588">
        <ele>-2.88</ele>
        <time>2021-12-18T10:39:55Z</time>
      </trkpt>
      <trkpt lat="51.378405774012208" lon="4.352851146832109">
        <ele>-2.84</ele>
        <time>2021-12-18T10:40:08Z</time>
      </trkpt>
      <trkpt lat="51.378549356013536" lon="4.352815188467503">
        <ele>-6.35</ele>
        <time>2021-12-18T10:40:19Z</time>
      </trkpt>
      <trkpt lat="51.378746414557099" lon="4.352776547893882">
        <ele>-6.32</ele>
        <time>2021-12-18T10:40:33Z</time>
      </trkpt>
      <trkpt lat="51.378828389570117" lon="4.35277403332293">
        <ele>-4.03</ele>
        <time>2021-12-18T10:40:38Z</time>
      </trkpt>
      <trkpt lat="51.379142040386796" lon="4.352734638378024">
        <ele>-3.99</ele>
        <time>2021-12-18T10:40:51Z</time>
      </trkpt>
      <trkpt lat="51.37963380664587" lon="4.352629613131285">
        <ele>-3.98</ele>
        <time>2021-12-18T10:41:02Z</time>
      </trkpt>
      <trkpt lat="51.380267646163702" lon="4.352523246780038">
        <ele>-3.95</ele>
        <time>2021-12-18T10:41:15Z</time>
      </trkpt>
      <trkpt lat="51.380317686125636" lon="4.352505058050156">
        <ele>-3.95</ele>
        <time>2021-12-18T10:41:16Z</time>
      </trkpt>
      <trkpt lat="51.380407540127635" lon="4.352484019473195">
        <ele>-3.95</ele>
        <time>2021-12-18T10:41:18Z</time>
      </trkpt>
      <trkpt lat="51.382687333971262" lon="4.352100463584065">
        <ele>-0.95</ele>
        <time>2021-12-18T10:42:27Z</time>
      </trkpt>
      <trkpt lat="51.38284700922668" lon="4.352007256820798">
        <ele>-0.25</ele>
        <time>2021-12-18T10:42:40Z</time>
      </trkpt>
      <trkpt lat="51.383029147982597" lon="4.351832242682576">
        <ele>-0.39</ele>
        <time>2021-12-18T10:42:58Z</time>
      </trkpt>
      <trkpt lat="51.383109195157886" lon="4.351913798600435">
        <ele>-0.36</ele>
        <time>2021-12-18T10:43:06Z</time>
      </trkpt>
      <trkpt lat="51.383114643394947" lon="4.351937184110284">
        <ele>-0.35</ele>
        <time>2021-12-18T10:43:07Z</time>
      </trkpt>
      <trkpt lat="51.383202485740185" lon="4.352155532687903">
        <ele>1.24</ele>
        <time>2021-12-18T10:43:21Z</time>
      </trkpt>
      <trkpt lat="51.383454026654363" lon="4.353528236970305">
        <ele>0.92</ele>
        <time>2021-12-18T10:44:36Z</time>
      </trkpt>
      <trkpt lat="51.383517980575562" lon="4.353963676840067">
        <ele>0.76</ele>
        <time>2021-12-18T10:44:54Z</time>
      </trkpt>
      <trkpt lat="51.383621245622635" lon="4.354363325983286">
        <ele>0.6</ele>
        <time>2021-12-18T10:45:16Z</time>
      </trkpt>
      <trkpt lat="51.383664747700095" lon="4.354542782530189">
        <ele>0.54</ele>
        <time>2021-12-18T10:45:23Z</time>
      </trkpt>
      <trkpt lat="51.383660556748509" lon="4.354572538286448">
        <ele>0.54</ele>
        <time>2021-12-18T10:45:24Z</time>
      </trkpt>
      <trkpt lat="51.383673632517457" lon="4.354617213830352">
        <ele>0.53</ele>
        <time>2021-12-18T10:45:26Z</time>
      </trkpt>
      <trkpt lat="51.383711434900761" lon="4.354836149141192">
        <ele>0.45</ele>
        <time>2021-12-18T10:45:38Z</time>
      </trkpt>
      <trkpt lat="51.383808832615614" lon="4.355182070285082">
        <ele>0.39</ele>
        <time>2021-12-18T10:45:55Z</time>
      </trkpt>
      <trkpt lat="51.383862309157848" lon="4.355544503778219">
        <ele>0.34</ele>
        <time>2021-12-18T10:46:11Z</time>
      </trkpt>
      <trkpt lat="51.383882006630301" lon="4.355714656412602">
        <ele>0.34</ele>
        <time>2021-12-18T10:46:18Z</time>
      </trkpt>
      <trkpt lat="51.383889885619283" lon="4.355731168761849">
        <ele>0.34</ele>
        <time>2021-12-18T10:46:19Z</time>
      </trkpt>
      <trkpt lat="51.383894076570868" lon="4.355752626433969">
        <ele>0.34</ele>
        <time>2021-12-18T10:46:20Z</time>
      </trkpt>
      <trkpt lat="51.383896758779883" lon="4.355775760486722">
        <ele>0.35</ele>
        <time>2021-12-18T10:46:21Z</time>
      </trkpt>
      <trkpt lat="51.383898602798581" lon="4.35579470358789">
        <ele>0.35</ele>
        <time>2021-12-18T10:46:22Z</time>
      </trkpt>
      <trkpt lat="51.383901536464691" lon="4.355814568698406">
        <ele>0.36</ele>
        <time>2021-12-18T10:46:23Z</time>
      </trkpt>
      <trkpt lat="51.383906397968531" lon="4.355831583961844">
        <ele>0.36</ele>
        <time>2021-12-18T10:46:24Z</time>
      </trkpt>
      <trkpt lat="51.383912432938814" lon="4.35584700666368">
        <ele>0.36</ele>
        <time>2021-12-18T10:46:25Z</time>
      </trkpt>
      <trkpt lat="51.383918048813939" lon="4.355860920622945">
        <ele>0.36</ele>
        <time>2021-12-18T10:46:26Z</time>
      </trkpt>
      <trkpt lat="51.383923413231969" lon="4.355880031362176">
        <ele>0.36</ele>
        <time>2021-12-18T10:46:27Z</time>
      </trkpt>
      <trkpt lat="51.383931459859014" lon="4.355894448235631">
        <ele>0.36</ele>
        <time>2021-12-18T10:46:28Z</time>
      </trkpt>
      <trkpt lat="51.383938584476709" lon="4.355912217870355">
        <ele>0.36</ele>
        <time>2021-12-18T10:46:29Z</time>
      </trkpt>
      <trkpt lat="51.384055009111762" lon="4.356223857030273">
        <ele>0.39</ele>
        <time>2021-12-18T10:46:46Z</time>
      </trkpt>
      <trkpt lat="51.384244523942471" lon="4.356486797332764">
        <ele>0.49</ele>
        <time>2021-12-18T10:47:05Z</time>
      </trkpt>
      <trkpt lat="51.384389279410243" lon="4.356694333255291">
        <ele>0.53</ele>
        <time>2021-12-18T10:47:20Z</time>
      </trkpt>
      <trkpt lat="51.384398667141795" lon="4.356707576662302">
        <ele>0.54</ele>
        <time>2021-12-18T10:47:21Z</time>
      </trkpt>
      <trkpt lat="51.384547194465995" lon="4.356954507529736">
        <ele>0.6</ele>
        <time>2021-12-18T10:47:37Z</time>
      </trkpt>
      <trkpt lat="51.384647442027926" lon="4.3570651486516">
        <ele>0.64</ele>
        <time>2021-12-18T10:47:46Z</time>
      </trkpt>
      <trkpt lat="51.384657332673669" lon="4.357080906629562">
        <ele>0.65</ele>
        <time>2021-12-18T10:47:47Z</time>
      </trkpt>
      <trkpt lat="51.384668229147792" lon="4.357094652950764">
        <ele>0.64</ele>
        <time>2021-12-18T10:47:48Z</time>
      </trkpt>
      <trkpt lat="51.384680466726422" lon="4.357110410928726">
        <ele>0.64</ele>
        <time>2021-12-18T10:47:49Z</time>
      </trkpt>
      <trkpt lat="51.38469404540956" lon="4.357126085087657">
        <ele>0.63</ele>
        <time>2021-12-18T10:47:50Z</time>
      </trkpt>
      <trkpt lat="51.384834609925747" lon="4.357309397310019">
        <ele>0.67</ele>
        <time>2021-12-18T10:48:04Z</time>
      </trkpt>
      <trkpt lat="51.385021694004536" lon="4.357534619048238">
        <ele>0.7</ele>
        <time>2021-12-18T10:48:15Z</time>
      </trkpt>
      <trkpt lat="51.385503904893994" lon="4.356270544230938">
        <ele>0.83</ele>
        <time>2021-12-18T10:49:13Z</time>
      </trkpt>
      <trkpt lat="51.38567715883255" lon="4.356131237000227">
        <ele>0.75</ele>
        <time>2021-12-18T10:49:25Z</time>
      </trkpt>
      <trkpt lat="51.385867176577449" lon="4.356008693575859">
        <ele>0.72</ele>
        <time>2021-12-18T10:49:36Z</time>
      </trkpt>
      <trkpt lat="51.385964909568429" lon="4.35601363889873">
        <ele>0.71</ele>
        <time>2021-12-18T10:49:44Z</time>
      </trkpt>
      <trkpt lat="51.38607488013804" lon="4.356139618903399">
        <ele>0.7</ele>
        <time>2021-12-18T10:49:55Z</time>
      </trkpt>
      <trkpt lat="51.386140510439873" lon="4.356270879507065">
        <ele>0.67</ele>
        <time>2021-12-18T10:50:02Z</time>
      </trkpt>
      <trkpt lat="51.386170769110322" lon="4.356296109035611">
        <ele>0.67</ele>
        <time>2021-12-18T10:50:04Z</time>
      </trkpt>
      <trkpt lat="51.386612327769399" lon="4.356998847797513">
        <ele>0.46</ele>
        <time>2021-12-18T10:50:52Z</time>
      </trkpt>
      <trkpt lat="51.386759011074901" lon="4.357164055109024">
        <ele>0.44</ele>
        <time>2021-12-18T10:51:05Z</time>
      </trkpt>
      <trkpt lat="51.386835621669888" lon="4.357397155836225">
        <ele>0.45</ele>
        <time>2021-12-18T10:51:16Z</time>
      </trkpt>
      <trkpt lat="51.38689873740077" lon="4.35736421495676">
        <ele>0.42</ele>
        <time>2021-12-18T10:51:26Z</time>
      </trkpt>
      <trkpt lat="51.386955482885242" lon="4.357273606583476">
        <ele>0.42</ele>
        <time>2021-12-18T10:51:34Z</time>
      </trkpt>
      <trkpt lat="51.386977192014456" lon="4.357232367619872">
        <ele>0.42</ele>
        <time>2021-12-18T10:51:37Z</time>
      </trkpt>
      <trkpt lat="51.387004433199763" lon="4.357219208031893">
        <ele>0.42</ele>
        <time>2021-12-18T10:51:39Z</time>
      </trkpt>
      <trkpt lat="51.387100238353014" lon="4.357115356251597">
        <ele>0.39</ele>
        <time>2021-12-18T10:51:47Z</time>
      </trkpt>
      <trkpt lat="51.387312719598413" lon="4.356835149228573">
        <ele>1.06</ele>
        <time>2021-12-18T10:52:09Z</time>
      </trkpt>
      <trkpt lat="51.387418834492564" lon="4.35662736184895">
        <ele>2.59</ele>
        <time>2021-12-18T10:52:24Z</time>
      </trkpt>
      <trkpt lat="51.387535678222775" lon="4.35658729635179">
        <ele>2.49</ele>
        <time>2021-12-18T10:52:38Z</time>
      </trkpt>
      <trkpt lat="51.387612959370017" lon="4.35675635933876">
        <ele>3.25</ele>
        <time>2021-12-18T10:52:48Z</time>
      </trkpt>
      <trkpt lat="51.387775652110577" lon="4.357090881094337">
        <ele>3.06</ele>
        <time>2021-12-18T10:53:07Z</time>
      </trkpt>
      <trkpt lat="51.387831224128604" lon="4.357185177505016">
        <ele>2.98</ele>
        <time>2021-12-18T10:53:13Z</time>
      </trkpt>
      <trkpt lat="51.387952174991369" lon="4.357275199145079">
        <ele>2.74</ele>
        <time>2021-12-18T10:53:29Z</time>
      </trkpt>
      <trkpt lat="51.38810807839036" lon="4.357193810865283">
        <ele>2.44</ele>
        <time>2021-12-18T10:53:47Z</time>
      </trkpt>
      <trkpt lat="51.388282589614391" lon="4.357042433694005">
        <ele>2.18</ele>
        <time>2021-12-18T10:54:03Z</time>
      </trkpt>
      <trkpt lat="51.38844863511622" lon="4.35694838874042">
        <ele>2.92</ele>
        <time>2021-12-18T10:54:19Z</time>
      </trkpt>
      <trkpt lat="51.388727836310863" lon="4.35682768933475">
        <ele>3.47</ele>
        <time>2021-12-18T10:54:38Z</time>
      </trkpt>
      <trkpt lat="51.389024639502168" lon="4.356614286080003">
        <ele>3.21</ele>
        <time>2021-12-18T10:54:55Z</time>
      </trkpt>
      <trkpt lat="51.389119355008006" lon="4.356563156470656">
        <ele>3.15</ele>
        <time>2021-12-18T10:55:01Z</time>
      </trkpt>
      <trkpt lat="51.389318257570267" lon="4.356451090425253">
        <ele>3.03</ele>
        <time>2021-12-18T10:55:16Z</time>
      </trkpt>
      <trkpt lat="51.389452116563916" lon="4.356367941945791">
        <ele>2.93</ele>
        <time>2021-12-18T10:55:31Z</time>
      </trkpt>
      <trkpt lat="51.389514310285449" lon="4.356323685497046">
        <ele>2.89</ele>
        <time>2021-12-18T10:55:37Z</time>
      </trkpt>
      <trkpt lat="51.389613468199968" lon="4.356243973597884">
        <ele>2.82</ele>
        <time>2021-12-18T10:55:46Z</time>
      </trkpt>
      <trkpt lat="51.389688989147544" lon="4.356304742395878">
        <ele>2.77</ele>
        <time>2021-12-18T10:55:53Z</time>
      </trkpt>
      <trkpt lat="51.389694772660732" lon="4.356399793177843">
        <ele>2.74</ele>
        <time>2021-12-18T10:55:57Z</time>
      </trkpt>
      <trkpt lat="51.389792254194617" lon="4.356701960787177">
        <ele>2.66</ele>
        <time>2021-12-18T10:56:13Z</time>
      </trkpt>
      <trkpt lat="51.390033066272736" lon="4.357598153874278">
        <ele>2.49</ele>
        <time>2021-12-18T10:56:57Z</time>
      </trkpt>
      <trkpt lat="51.390158794820309" lon="4.35793636366725">
        <ele>2.49</ele>
        <time>2021-12-18T10:57:14Z</time>
      </trkpt>
      <trkpt lat="51.390220485627651" lon="4.358194945380092">
        <ele>2.5</ele>
        <time>2021-12-18T10:57:27Z</time>
      </trkpt>
      <trkpt lat="51.390297682955861" lon="4.3584103602916">
        <ele>0.15</ele>
        <time>2021-12-18T10:57:39Z</time>
      </trkpt>
      <trkpt lat="51.390476804226637" lon="4.359103124588728">
        <ele>0.12</ele>
        <time>2021-12-18T10:58:11Z</time>
      </trkpt>
      <trkpt lat="51.390552828088403" lon="4.359420547261834">
        <ele>0.06</ele>
        <time>2021-12-18T10:58:25Z</time>
      </trkpt>
      <trkpt lat="51.390627175569534" lon="4.359703939408064">
        <ele>0</ele>
        <time>2021-12-18T10:58:38Z</time>
      </trkpt>
      <trkpt lat="51.390662211924791" lon="4.359951205551624">
        <ele>-0.8</ele>
        <time>2021-12-18T10:58:51Z</time>
      </trkpt>
      <trkpt lat="51.390699343755841" lon="4.360065786167979">
        <ele>-0.84</ele>
        <time>2021-12-18T10:59:03Z</time>
      </trkpt>
      <trkpt lat="51.390724070370197" lon="4.360070647671819">
        <ele>-0.87</ele>
        <time>2021-12-18T10:59:10Z</time>
      </trkpt>
      <trkpt lat="51.390703367069364" lon="4.360021781176329">
        <ele>-0.87</ele>
        <time>2021-12-18T10:59:14Z</time>
      </trkpt>
      <trkpt lat="51.390790790319443" lon="4.360193694010377">
        <ele>-0.89</ele>
        <time>2021-12-18T10:59:29Z</time>
      </trkpt>
      <trkpt lat="51.391048533841968" lon="4.36104160733521">
        <ele>-1.71</ele>
        <time>2021-12-18T11:00:27Z</time>
      </trkpt>
      <trkpt lat="51.392019493505359" lon="4.364477265626192">
        <ele>2.31</ele>
        <time>2021-12-18T11:02:35Z</time>
      </trkpt>
      <trkpt lat="51.392044387757778" lon="4.364820001646876">
        <ele>2.01</ele>
        <time>2021-12-18T11:02:47Z</time>
      </trkpt>
      <trkpt lat="51.391954869031906" lon="4.365097107365727">
        <ele>1.62</ele>
        <time>2021-12-18T11:03:03Z</time>
      </trkpt>
      <trkpt lat="51.391882700845599" lon="4.365248652175069">
        <ele>-0.88</ele>
        <time>2021-12-18T11:03:11Z</time>
      </trkpt>
      <trkpt lat="51.391753870993853" lon="4.365537073463202">
        <ele>-2.01</ele>
        <time>2021-12-18T11:03:27Z</time>
      </trkpt>
      <trkpt lat="51.391682708635926" lon="4.365632878616452">
        <ele>-3.11</ele>
        <time>2021-12-18T11:03:36Z</time>
      </trkpt>
      <trkpt lat="51.391548095270991" lon="4.365823231637478">
        <ele>-5.91</ele>
        <time>2021-12-18T11:03:51Z</time>
      </trkpt>
      <trkpt lat="51.391538036987185" lon="4.365857848897576">
        <ele>-5.97</ele>
        <time>2021-12-18T11:03:53Z</time>
      </trkpt>
      <trkpt lat="51.391434269025922" lon="4.366008304059506">
        <ele>-6.13</ele>
        <time>2021-12-18T11:04:00Z</time>
      </trkpt>
      <trkpt lat="51.391417672857642" lon="4.366034287959337">
        <ele>-6.15</ele>
        <time>2021-12-18T11:04:01Z</time>
      </trkpt>
      <trkpt lat="51.391198402270675" lon="4.366338718682528">
        <ele>-6.53</ele>
        <time>2021-12-18T11:04:17Z</time>
      </trkpt>
      <trkpt lat="51.390161560848355" lon="4.368030438199639">
        <ele>-9.94</ele>
        <time>2021-12-18T11:06:15Z</time>
      </trkpt>
      <trkpt lat="51.390117555856705" lon="4.368419526144862">
        <ele>-10.44</ele>
        <time>2021-12-18T11:06:35Z</time>
      </trkpt>
      <trkpt lat="51.390221323817968" lon="4.368800818920136">
        <ele>-10.93</ele>
        <time>2021-12-18T11:06:54Z</time>
      </trkpt>
      <trkpt lat="51.390220653265715" lon="4.368851529434323">
        <ele>-10.99</ele>
        <time>2021-12-18T11:06:56Z</time>
      </trkpt>
      <trkpt lat="51.39031033962965" lon="4.369095778092742">
        <ele>-11.32</ele>
        <time>2021-12-18T11:07:09Z</time>
      </trkpt>
      <trkpt lat="51.390446964651346" lon="4.369421834126115">
        <ele>-11.710000000000001</ele>
        <time>2021-12-18T11:07:25Z</time>
      </trkpt>
      <trkpt lat="51.390557941049337" lon="4.369752667844296">
        <ele>-12.050000000000001</ele>
        <time>2021-12-18T11:07:40Z</time>
      </trkpt>
      <trkpt lat="51.390584763139486" lon="4.369801450520754">
        <ele>-12.109999999999999</ele>
        <time>2021-12-18T11:07:43Z</time>
      </trkpt>
      <trkpt lat="51.390610076487064" lon="4.369856100529432">
        <ele>-12.18</ele>
        <time>2021-12-18T11:07:46Z</time>
      </trkpt>
      <trkpt lat="51.390635725110769" lon="4.369894657284021">
        <ele>-12.24</ele>
        <time>2021-12-18T11:07:49Z</time>
      </trkpt>
      <trkpt lat="51.390650058165193" lon="4.369909157976508">
        <ele>-12.26</ele>
        <time>2021-12-18T11:07:50Z</time>
      </trkpt>
      <trkpt lat="51.390683837234974" lon="4.370026336982846">
        <ele>-12.359999999999999</ele>
        <time>2021-12-18T11:07:55Z</time>
      </trkpt>
      <trkpt lat="51.390693476423621" lon="4.370047291740775">
        <ele>-12.380000000000001</ele>
        <time>2021-12-18T11:07:56Z</time>
      </trkpt>
      <trkpt lat="51.393580371513963" lon="4.378463225439191">
        <ele>-16.850000000000001</ele>
        <time>2021-12-18T11:10:12Z</time>
      </trkpt>
      <trkpt lat="51.393659999594092" lon="4.378847535699606">
        <ele>-17.030000000000001</ele>
        <time>2021-12-18T11:10:26Z</time>
      </trkpt>
      <trkpt lat="51.39376544393599" lon="4.379117600619793">
        <ele>-17.18</ele>
        <time>2021-12-18T11:10:41Z</time>
      </trkpt>
      <trkpt lat="51.393801653757691" lon="4.379214914515615">
        <ele>-17.23</ele>
        <time>2021-12-18T11:10:47Z</time>
      </trkpt>
      <trkpt lat="51.393830738961697" lon="4.379291022196412">
        <ele>-17.350000000000001</ele>
        <time>2021-12-18T11:10:50Z</time>
      </trkpt>
      <trkpt lat="51.393838617950678" lon="4.37931532971561">
        <ele>-17.34</ele>
        <time>2021-12-18T11:10:51Z</time>
      </trkpt>
      <trkpt lat="51.394374556839466" lon="4.380921050906181">
        <ele>-15.6</ele>
        <time>2021-12-18T11:15:35Z</time>
      </trkpt>
      <trkpt lat="51.394346812739968" lon="4.380895486101508">
        <ele>-13.07</ele>
        <time>2021-12-18T11:15:54Z</time>
      </trkpt>
      <trkpt lat="51.394882751628757" lon="4.38232334330678">
        <ele>-10.32</ele>
        <time>2021-12-18T11:17:45Z</time>
      </trkpt>
      <trkpt lat="51.395083498209715" lon="4.382685609161854">
        <ele>-10.529999999999999</ele>
        <time>2021-12-18T11:18:07Z</time>
      </trkpt>
      <trkpt lat="51.395269995555282" lon="4.383059944957495">
        <ele>-10.74</ele>
        <time>2021-12-18T11:18:27Z</time>
      </trkpt>
      <trkpt lat="51.395466299727559" lon="4.383512400090694">
        <ele>-11.119999999999999</ele>
        <time>2021-12-18T11:18:46Z</time>
      </trkpt>
      <trkpt lat="51.3954849075526" lon="4.383544586598873">
        <ele>-13.69</ele>
        <time>2021-12-18T11:18:48Z</time>
      </trkpt>
      <trkpt lat="51.395532265305519" lon="4.383777184411883">
        <ele>-13.859999999999999</ele>
        <time>2021-12-18T11:19:03Z</time>
      </trkpt>
      <trkpt lat="51.395575683563948" lon="4.383963765576482">
        <ele>-15.08</ele>
        <time>2021-12-18T11:20:46Z</time>
      </trkpt>
      <trkpt lat="51.395588340237737" lon="4.384289067238569">
        <ele>-15.220000000000001</ele>
        <time>2021-12-18T11:20:59Z</time>
      </trkpt>
      <trkpt lat="51.395626394078135" lon="4.384701959788799">
        <ele>-16.190000000000001</ele>
        <time>2021-12-18T11:21:19Z</time>
      </trkpt>
      <trkpt lat="51.395696885883808" lon="4.384960290044546">
        <ele>-17.440000000000001</ele>
        <time>2021-12-18T11:21:35Z</time>
      </trkpt>
      <trkpt lat="51.395831499248743" lon="4.385392796248198">
        <ele>-17.690000000000001</ele>
        <time>2021-12-18T11:21:52Z</time>
      </trkpt>
      <trkpt lat="51.395835019648075" lon="4.386233752593398">
        <ele>-18.440000000000001</ele>
        <time>2021-12-18T11:22:38Z</time>
      </trkpt>
      <trkpt lat="51.395847592502832" lon="4.386594593524933">
        <ele>-18.809999999999999</ele>
        <time>2021-12-18T11:22:57Z</time>
      </trkpt>
      <trkpt lat="51.395862009376287" lon="4.386638514697552">
        <ele>-18.850000000000001</ele>
        <time>2021-12-18T11:22:59Z</time>
      </trkpt>
      <trkpt lat="51.395988073199987" lon="4.386969516053796">
        <ele>-19.16</ele>
        <time>2021-12-18T11:23:14Z</time>
      </trkpt>
      <trkpt lat="51.395999724045396" lon="4.386982591822743">
        <ele>-19.18</ele>
        <time>2021-12-18T11:23:15Z</time>
      </trkpt>
      <trkpt lat="51.396038867533207" lon="4.38709675334394">
        <ele>-19.300000000000001</ele>
        <time>2021-12-18T11:23:21Z</time>
      </trkpt>
      <trkpt lat="51.396130984649062" lon="4.387456336989999">
        <ele>-19.469999999999999</ele>
        <time>2021-12-18T11:23:36Z</time>
      </trkpt>
      <trkpt lat="51.396222179755569" lon="4.387860428541899">
        <ele>-19.629999999999999</ele>
        <time>2021-12-18T11:23:55Z</time>
      </trkpt>
      <trkpt lat="51.396321170032024" lon="4.388249013572931">
        <ele>-19.690000000000001</ele>
        <time>2021-12-18T11:24:11Z</time>
      </trkpt>
      <trkpt lat="51.396415717899799" lon="4.388502230867744">
        <ele>-19.760000000000002</ele>
        <time>2021-12-18T11:24:27Z</time>
      </trkpt>
      <trkpt lat="51.396430805325508" lon="4.388575069606304">
        <ele>-19.760000000000002</ele>
        <time>2021-12-18T11:24:31Z</time>
      </trkpt>
      <trkpt lat="51.396446479484439" lon="4.388612201437354">
        <ele>-19.77</ele>
        <time>2021-12-18T11:24:33Z</time>
      </trkpt>
      <trkpt lat="51.39645335264504" lon="4.388636341318488">
        <ele>-19.780000000000001</ele>
        <time>2021-12-18T11:24:34Z</time>
      </trkpt>
      <trkpt lat="51.396458633244038" lon="4.38865888863802">
        <ele>-19.780000000000001</ele>
        <time>2021-12-18T11:24:35Z</time>
      </trkpt>
      <trkpt lat="51.396533483639359" lon="4.388917051255703">
        <ele>-19.890000000000001</ele>
        <time>2021-12-18T11:24:50Z</time>
      </trkpt>
      <trkpt lat="51.396572710946202" lon="4.389033475890756">
        <ele>-17.489999999999998</ele>
        <time>2021-12-18T11:24:57Z</time>
      </trkpt>
      <trkpt lat="51.396583439782262" lon="4.389061303809285">
        <ele>-17.489999999999998</ele>
        <time>2021-12-18T11:24:58Z</time>
      </trkpt>
      <trkpt lat="51.396709168329835" lon="4.389334553852677">
        <ele>-17.620000000000001</ele>
        <time>2021-12-18T11:25:10Z</time>
      </trkpt>
      <trkpt lat="51.396942604333162" lon="4.3905542884022">
        <ele>-17.469999999999999</ele>
        <time>2021-12-18T11:26:12Z</time>
      </trkpt>
      <trkpt lat="51.396956099197268" lon="4.390826364979148">
        <ele>-17.620000000000001</ele>
        <time>2021-12-18T11:26:22Z</time>
      </trkpt>
      <trkpt lat="51.397073110565543" lon="4.391176979988813">
        <ele>-17.829999999999998</ele>
        <time>2021-12-18T11:26:36Z</time>
      </trkpt>
      <trkpt lat="51.397092305123806" lon="4.391204137355089">
        <ele>-17.850000000000001</ele>
        <time>2021-12-18T11:26:37Z</time>
      </trkpt>
      <trkpt lat="51.399071021005511" lon="4.397960873320699">
        <ele>-19.690000000000001</ele>
        <time>2021-12-18T11:28:48Z</time>
      </trkpt>
      <trkpt lat="51.399199767038226" lon="4.398491447791457">
        <ele>-19.68</ele>
        <time>2021-12-18T11:29:00Z</time>
      </trkpt>
      <trkpt lat="51.399282831698656" lon="4.399042809382081">
        <ele>-19.719999999999999</ele>
        <time>2021-12-18T11:29:10Z</time>
      </trkpt>
      <trkpt lat="51.399356257170439" lon="4.399558883160353">
        <ele>-18.84</ele>
        <time>2021-12-18T11:29:20Z</time>
      </trkpt>
      <trkpt lat="51.399497827515006" lon="4.400027096271515">
        <ele>-18.969999999999999</ele>
        <time>2021-12-18T11:29:30Z</time>
      </trkpt>
      <trkpt lat="51.399661106988788" lon="4.400719106197357">
        <ele>-18.420000000000002</ele>
        <time>2021-12-18T11:29:42Z</time>
      </trkpt>
      <trkpt lat="51.399753978475928" lon="4.40135101787746">
        <ele>-17.789999999999999</ele>
        <time>2021-12-18T11:29:54Z</time>
      </trkpt>
      <trkpt lat="51.399710895493627" lon="4.401747733354569">
        <ele>-17.960000000000001</ele>
        <time>2021-12-18T11:30:09Z</time>
      </trkpt>
      <trkpt lat="51.399594889953732" lon="4.401930207386613">
        <ele>-18.010000000000002</ele>
        <time>2021-12-18T11:30:24Z</time>
      </trkpt>
      <trkpt lat="51.399310659617186" lon="4.402268249541521">
        <ele>-18.109999999999999</ele>
        <time>2021-12-18T11:30:48Z</time>
      </trkpt>
      <trkpt lat="51.399114271625876" lon="4.402541080489755">
        <ele>-18.23</ele>
        <time>2021-12-18T11:31:07Z</time>
      </trkpt>
      <trkpt lat="51.399005390703678" lon="4.402667982503772">
        <ele>-18.27</ele>
        <time>2021-12-18T11:31:17Z</time>
      </trkpt>
      <trkpt lat="51.398841692134738" lon="4.402858419343829">
        <ele>-18.32</ele>
        <time>2021-12-18T11:31:31Z</time>
      </trkpt>
      <trkpt lat="51.398580009117723" lon="4.403183218091726">
        <ele>-18.370000000000001</ele>
        <time>2021-12-18T11:31:40Z</time>
      </trkpt>
      <trkpt lat="51.398498369380832" lon="4.403261421248317">
        <ele>-18.359999999999999</ele>
        <time>2021-12-18T11:31:42Z</time>
      </trkpt>
      <trkpt lat="51.398231657221913" lon="4.403560739010572">
        <ele>-15.85</ele>
        <time>2021-12-18T11:31:52Z</time>
      </trkpt>
      <trkpt lat="51.397981708869338" lon="4.403805658221245">
        <ele>-16.050000000000001</ele>
        <time>2021-12-18T11:32:09Z</time>
      </trkpt>
      <trkpt lat="51.397793283686042" lon="4.404030963778496">
        <ele>-16.170000000000002</ele>
        <time>2021-12-18T11:32:24Z</time>
      </trkpt>
      <trkpt lat="51.395520530641079" lon="4.406787436455488">
        <ele>-20.239999999999998</ele>
        <time>2021-12-18T11:35:31Z</time>
      </trkpt>
      <trkpt lat="51.395345935598016" lon="4.406967731192708">
        <ele>-20.25</ele>
        <time>2021-12-18T11:35:44Z</time>
      </trkpt>
      <trkpt lat="51.395273851230741" lon="4.407055238261819">
        <ele>-20.25</ele>
        <time>2021-12-18T11:35:49Z</time>
      </trkpt>
      <trkpt lat="51.395263960584998" lon="4.407078959047794">
        <ele>-20.25</ele>
        <time>2021-12-18T11:35:50Z</time>
      </trkpt>
      <trkpt lat="51.395239653065801" lon="4.407106703147292">
        <ele>-20.239999999999998</ele>
        <time>2021-12-18T11:35:51Z</time>
      </trkpt>
      <trkpt lat="51.395027171820402" lon="4.407399483025074">
        <ele>-20.199999999999999</ele>
        <time>2021-12-18T11:36:07Z</time>
      </trkpt>
      <trkpt lat="51.39489809051156" lon="4.407599391415715">
        <ele>-20.16</ele>
        <time>2021-12-18T11:36:20Z</time>
      </trkpt>
      <trkpt lat="51.394717125222087" lon="4.407799718901515">
        <ele>-20.129999999999999</ele>
        <time>2021-12-18T11:36:35Z</time>
      </trkpt>
      <trkpt lat="51.394552337005734" lon="4.407967692241073">
        <ele>-20.079999999999998</ele>
        <time>2021-12-18T11:36:50Z</time>
      </trkpt>
      <trkpt lat="51.394355110824108" lon="4.408139772713184">
        <ele>-20.07</ele>
        <time>2021-12-18T11:37:05Z</time>
      </trkpt>
      <trkpt lat="51.394153442233801" lon="4.408380249515176">
        <ele>-20.079999999999998</ele>
        <time>2021-12-18T11:37:21Z</time>
      </trkpt>
      <trkpt lat="51.393964681774378" lon="4.408636735752225">
        <ele>-20.02</ele>
        <time>2021-12-18T11:37:37Z</time>
      </trkpt>
      <trkpt lat="51.393766952678561" lon="4.408911913633347">
        <ele>-19.949999999999999</ele>
        <time>2021-12-18T11:37:53Z</time>
      </trkpt>
      <trkpt lat="51.393637787550688" lon="4.409116012975574">
        <ele>-19.850000000000001</ele>
        <time>2021-12-18T11:38:06Z</time>
      </trkpt>
      <trkpt lat="51.393288765102625" lon="4.40951063297689">
        <ele>-19.620000000000001</ele>
        <time>2021-12-18T11:38:36Z</time>
      </trkpt>
      <trkpt lat="51.393138896673918" lon="4.40969436429441">
        <ele>-19.539999999999999</ele>
        <time>2021-12-18T11:38:50Z</time>
      </trkpt>
      <trkpt lat="51.393066057935357" lon="4.409767119213939">
        <ele>-17.219999999999999</ele>
        <time>2021-12-18T11:38:55Z</time>
      </trkpt>
      <trkpt lat="51.392907639965415" lon="4.409976750612259">
        <ele>-16.260000000000002</ele>
        <time>2021-12-18T11:39:08Z</time>
      </trkpt>
      <trkpt lat="51.392894228920341" lon="4.409992089495063">
        <ele>-16.25</ele>
        <time>2021-12-18T11:39:09Z</time>
      </trkpt>
      <trkpt lat="51.392767243087292" lon="4.410157045349479">
        <ele>-16.239999999999998</ele>
        <time>2021-12-18T11:39:20Z</time>
      </trkpt>
      <trkpt lat="51.392761878669262" lon="4.410176491364837">
        <ele>-16.239999999999998</ele>
        <time>2021-12-18T11:39:21Z</time>
      </trkpt>
      <trkpt lat="51.392753329128027" lon="4.410195853561163">
        <ele>-16.219999999999999</ele>
        <time>2021-12-18T11:39:22Z</time>
      </trkpt>
      <trkpt lat="51.392655009403825" lon="4.410319570451975">
        <ele>-16.109999999999999</ele>
        <time>2021-12-18T11:39:32Z</time>
      </trkpt>
      <trkpt lat="51.392648052424192" lon="4.41033348441124">
        <ele>-16.100000000000001</ele>
        <time>2021-12-18T11:39:33Z</time>
      </trkpt>
      <trkpt lat="51.392626259475946" lon="4.410369275137782">
        <ele>-16.100000000000001</ele>
        <time>2021-12-18T11:39:35Z</time>
      </trkpt>
      <trkpt lat="51.392465326935053" lon="4.410541355609894">
        <ele>-16.059999999999999</ele>
        <time>2021-12-18T11:39:49Z</time>
      </trkpt>
      <trkpt lat="51.392325516790152" lon="4.410671861842275">
        <ele>-16.02</ele>
        <time>2021-12-18T11:40:03Z</time>
      </trkpt>
      <trkpt lat="51.392180845141411" lon="4.410865232348442">
        <ele>-15.93</ele>
        <time>2021-12-18T11:40:17Z</time>
      </trkpt>
      <trkpt lat="51.392000466585159" lon="4.411104703322053">
        <ele>-15.789999999999999</ele>
        <time>2021-12-18T11:40:38Z</time>
      </trkpt>
      <trkpt lat="51.391778429970145" lon="4.411336882039905">
        <ele>-15.56</ele>
        <time>2021-12-18T11:40:58Z</time>
      </trkpt>
      <trkpt lat="51.391658652573824" lon="4.411455821245909">
        <ele>-14.630000000000001</ele>
        <time>2021-12-18T11:41:12Z</time>
      </trkpt>
      <trkpt lat="51.391637697815895" lon="4.411502927541733">
        <ele>-14.59</ele>
        <time>2021-12-18T11:41:16Z</time>
      </trkpt>
      <trkpt lat="51.39156561344862" lon="4.411591188982129">
        <ele>-13.58</ele>
        <time>2021-12-18T11:41:25Z</time>
      </trkpt>
      <trkpt lat="51.3915079459548" lon="4.411655059084296">
        <ele>-13.41</ele>
        <time>2021-12-18T11:41:38Z</time>
      </trkpt>
      <trkpt lat="51.391445668414235" lon="4.411731502041221">
        <ele>-13.210000000000001</ele>
        <time>2021-12-18T11:41:52Z</time>
      </trkpt>
      <trkpt lat="51.39143661595881" lon="4.41174223087728">
        <ele>-13.199999999999999</ele>
        <time>2021-12-18T11:41:53Z</time>
      </trkpt>
      <trkpt lat="51.391328237950802" lon="4.411884471774101">
        <ele>-12.99</ele>
        <time>2021-12-18T11:42:06Z</time>
      </trkpt>
      <trkpt lat="51.391271408647299" lon="4.411978265270591">
        <ele>-12.880000000000001</ele>
        <time>2021-12-18T11:42:13Z</time>
      </trkpt>
      <trkpt lat="51.391179207712412" lon="4.412096785381436">
        <ele>-12.67</ele>
        <time>2021-12-18T11:42:28Z</time>
      </trkpt>
      <trkpt lat="51.390935545787215" lon="4.41241211257875">
        <ele>-8.060000000000001</ele>
        <time>2021-12-18T11:44:15Z</time>
      </trkpt>
      <trkpt lat="51.390794226899743" lon="4.412591736763716">
        <ele>-7.88</ele>
        <time>2021-12-18T11:44:30Z</time>
      </trkpt>
      <trkpt lat="51.390573028475046" lon="4.412890467792749">
        <ele>-6.79</ele>
        <time>2021-12-18T11:44:50Z</time>
      </trkpt>
      <trkpt lat="51.390304891392589" lon="4.4131641369313">
        <ele>-10.539999999999999</ele>
        <time>2021-12-18T11:45:19Z</time>
      </trkpt>
      <trkpt lat="51.390277314931154" lon="4.413170255720615">
        <ele>-10.35</ele>
        <time>2021-12-18T11:45:23Z</time>
      </trkpt>
      <trkpt lat="51.39018771238625" lon="4.413176039233804">
        <ele>-11.119999999999999</ele>
        <time>2021-12-18T11:45:29Z</time>
      </trkpt>
      <trkpt lat="51.39003231190145" lon="4.413045952096582">
        <ele>-11.789999999999999</ele>
        <time>2021-12-18T11:45:44Z</time>
      </trkpt>
      <trkpt lat="51.389914629980922" lon="4.412908237427473">
        <ele>-12.59</ele>
        <time>2021-12-18T11:45:55Z</time>
      </trkpt>
      <trkpt lat="51.389747075736523" lon="4.412727691233158">
        <ele>-12.58</ele>
        <time>2021-12-18T11:46:09Z</time>
      </trkpt>
      <trkpt lat="51.389623107388616" lon="4.412442203611136">
        <ele>-12.59</ele>
        <time>2021-12-18T11:46:23Z</time>
      </trkpt>
      <trkpt lat="51.389604834839702" lon="4.412388643249869">
        <ele>-12.59</ele>
        <time>2021-12-18T11:46:26Z</time>
      </trkpt>
      <trkpt lat="51.389473238959908" lon="4.412118578329682">
        <ele>-12.58</ele>
        <time>2021-12-18T11:46:39Z</time>
      </trkpt>
      <trkpt lat="51.388869071379304" lon="4.41078744828701">
        <ele>-11.300000000000001</ele>
        <time>2021-12-18T11:47:46Z</time>
      </trkpt>
      <trkpt lat="51.388720460236073" lon="4.410466672852635">
        <ele>-11.27</ele>
        <time>2021-12-18T11:48:00Z</time>
      </trkpt>
      <trkpt lat="51.388685507699847" lon="4.410419650375843">
        <ele>-11.24</ele>
        <time>2021-12-18T11:48:06Z</time>
      </trkpt>
      <trkpt lat="51.388658853247762" lon="4.41038872115314">
        <ele>-13.59</ele>
        <time>2021-12-18T11:48:09Z</time>
      </trkpt>
      <trkpt lat="51.388446791097522" lon="4.410045817494392">
        <ele>-13.529999999999999</ele>
        <time>2021-12-18T11:48:20Z</time>
      </trkpt>
      <trkpt lat="51.388193657621741" lon="4.40963082946837">
        <ele>-13.5</ele>
        <time>2021-12-18T11:48:31Z</time>
      </trkpt>
      <trkpt lat="51.387954102829099" lon="4.409249452874064">
        <ele>-13.48</ele>
        <time>2021-12-18T11:48:41Z</time>
      </trkpt>
      <trkpt lat="51.387691413983703" lon="4.408994307741523">
        <ele>-13.460000000000001</ele>
        <time>2021-12-18T11:48:50Z</time>
      </trkpt>
      <trkpt lat="51.387351276353002" lon="4.408638244494796">
        <ele>-13.42</ele>
        <time>2021-12-18T11:49:01Z</time>
      </trkpt>
      <trkpt lat="51.386992027983069" lon="4.408303136005998">
        <ele>-13.4</ele>
        <time>2021-12-18T11:49:13Z</time>
      </trkpt>
      <trkpt lat="51.386757083237171" lon="4.407984623685479">
        <ele>-13.4</ele>
        <time>2021-12-18T11:49:23Z</time>
      </trkpt>
      <trkpt lat="51.386500429362059" lon="4.407609784975648">
        <ele>-13.41</ele>
        <time>2021-12-18T11:49:33Z</time>
      </trkpt>
      <trkpt lat="51.386105054989457" lon="4.407290183007717">
        <ele>-13.44</ele>
        <time>2021-12-18T11:49:43Z</time>
      </trkpt>
      <trkpt lat="51.385724013671279" lon="4.40707728266716">
        <ele>-13.449999999999999</ele>
        <time>2021-12-18T11:49:54Z</time>
      </trkpt>
      <trkpt lat="51.385330818593502" lon="4.40689598210156">
        <ele>-13.42</ele>
        <time>2021-12-18T11:50:06Z</time>
      </trkpt>
      <trkpt lat="51.384943071752787" lon="4.40682414919138">
        <ele>-13.390000000000001</ele>
        <time>2021-12-18T11:50:16Z</time>
      </trkpt>
      <trkpt lat="51.384523222222924" lon="4.406758602708578">
        <ele>-13.34</ele>
        <time>2021-12-18T11:50:27Z</time>
      </trkpt>
      <trkpt lat="51.384182497859001" lon="4.40685641951859">
        <ele>-13.210000000000001</ele>
        <time>2021-12-18T11:50:38Z</time>
      </trkpt>
      <trkpt lat="51.383892735466361" lon="4.406846612691879">
        <ele>-13.119999999999999</ele>
        <time>2021-12-18T11:50:48Z</time>
      </trkpt>
      <trkpt lat="51.383559973910451" lon="4.406809648498893">
        <ele>-13.029999999999999</ele>
        <time>2021-12-18T11:50:58Z</time>
      </trkpt>
      <trkpt lat="51.383182117715478" lon="4.406798165291548">
        <ele>-12.949999999999999</ele>
        <time>2021-12-18T11:51:08Z</time>
      </trkpt>
      <trkpt lat="51.382895037531853" lon="4.406745526939631">
        <ele>-12.84</ele>
        <time>2021-12-18T11:51:17Z</time>
      </trkpt>
      <trkpt lat="51.382653303444386" lon="4.406672772020102">
        <ele>-12.67</ele>
        <time>2021-12-18T11:51:29Z</time>
      </trkpt>
      <trkpt lat="51.382545176893473" lon="4.406676040962338">
        <ele>-12.609999999999999</ele>
        <time>2021-12-18T11:51:36Z</time>
      </trkpt>
      <trkpt lat="51.382530005648732" lon="4.40667025744915">
        <ele>-12.6</ele>
        <time>2021-12-18T11:51:37Z</time>
      </trkpt>
      <trkpt lat="51.382490023970604" lon="4.406658438965678">
        <ele>-12.550000000000001</ele>
        <time>2021-12-18T11:51:40Z</time>
      </trkpt>
      <trkpt lat="51.382473176345229" lon="4.406652739271522">
        <ele>-12.51</ele>
        <time>2021-12-18T11:51:41Z</time>
      </trkpt>
      <trkpt lat="51.382458927109838" lon="4.406644692644477">
        <ele>-12.52</ele>
        <time>2021-12-18T11:51:42Z</time>
      </trkpt>
      <trkpt lat="51.382445683702826" lon="4.406638238579035">
        <ele>-12.51</ele>
        <time>2021-12-18T11:51:43Z</time>
      </trkpt>
      <trkpt lat="51.382430428639054" lon="4.40663262270391">
        <ele>-12.49</ele>
        <time>2021-12-18T11:51:44Z</time>
      </trkpt>
      <trkpt lat="51.382207553833723" lon="4.406534805893898">
        <ele>-12.279999999999999</ele>
        <time>2021-12-18T11:51:59Z</time>
      </trkpt>
      <trkpt lat="51.382006052881479" lon="4.406373035162687">
        <ele>-12.140000000000001</ele>
        <time>2021-12-18T11:52:15Z</time>
      </trkpt>
      <trkpt lat="51.381997503340244" lon="4.406350571662188">
        <ele>-12.130000000000001</ele>
        <time>2021-12-18T11:52:16Z</time>
      </trkpt>
      <trkpt lat="51.381903709843755" lon="4.406150495633483">
        <ele>-11.99</ele>
        <time>2021-12-18T11:52:29Z</time>
      </trkpt>
      <trkpt lat="51.381020005792379" lon="4.405659902840853">
        <ele>-11.17</ele>
        <time>2021-12-18T11:53:34Z</time>
      </trkpt>
      <trkpt lat="51.381007432937622" lon="4.405656130984426">
        <ele>-11.140000000000001</ele>
        <time>2021-12-18T11:53:35Z</time>
      </trkpt>
      <trkpt lat="51.380940461531281" lon="4.405629727989435">
        <ele>-11.109999999999999</ele>
        <time>2021-12-18T11:53:40Z</time>
      </trkpt>
      <trkpt lat="51.380925625562668" lon="4.405625956133008">
        <ele>-11.119999999999999</ele>
        <time>2021-12-18T11:53:41Z</time>
      </trkpt>
      <trkpt lat="51.38069462031126" lon="4.405615562573075">
        <ele>-11.01</ele>
        <time>2021-12-18T11:53:56Z</time>
      </trkpt>
      <trkpt lat="51.380587751045823" lon="4.40560944378376">
        <ele>-10.970000000000001</ele>
        <time>2021-12-18T11:54:04Z</time>
      </trkpt>
      <trkpt lat="51.380574842914939" lon="4.40560357645154">
        <ele>-10.960000000000001</ele>
        <time>2021-12-18T11:54:05Z</time>
      </trkpt>
      <trkpt lat="51.380382813513279" lon="4.405590919777751">
        <ele>-10.949999999999999</ele>
        <time>2021-12-18T11:54:19Z</time>
      </trkpt>
      <trkpt lat="51.380194136872888" lon="4.405579352751374">
        <ele>-10.92</ele>
        <time>2021-12-18T11:54:32Z</time>
      </trkpt>
      <trkpt lat="51.380078131332994" lon="4.405561247840524">
        <ele>-10.949999999999999</ele>
        <time>2021-12-18T11:54:38Z</time>
      </trkpt>
      <trkpt lat="51.380048375576735" lon="4.405553871765733">
        <ele>-10.960000000000001</ele>
        <time>2021-12-18T11:54:40Z</time>
      </trkpt>
      <trkpt lat="51.380031360313296" lon="4.405553452670574">
        <ele>-10.949999999999999</ele>
        <time>2021-12-18T11:54:41Z</time>
      </trkpt>
      <trkpt lat="51.379840336740017" lon="4.405565522611141">
        <ele>-10.960000000000001</ele>
        <time>2021-12-18T11:54:57Z</time>
      </trkpt>
      <trkpt lat="51.379575803875923" lon="4.40556837245822">
        <ele>-11.01</ele>
        <time>2021-12-18T11:55:18Z</time>
      </trkpt>
      <trkpt lat="51.379378158599138" lon="4.40552587620914">
        <ele>-11.07</ele>
        <time>2021-12-18T11:55:31Z</time>
      </trkpt>
      <trkpt lat="51.379173221066594" lon="4.405523613095284">
        <ele>-11.19</ele>
        <time>2021-12-18T11:55:44Z</time>
      </trkpt>
      <trkpt lat="51.379121253266931" lon="4.405528977513313">
        <ele>-13.49</ele>
        <time>2021-12-18T11:55:47Z</time>
      </trkpt>
      <trkpt lat="51.379045397043228" lon="4.405524199828506">
        <ele>-13.5</ele>
        <time>2021-12-18T11:55:52Z</time>
      </trkpt>
      <trkpt lat="51.378355985507369" lon="4.405514812096953">
        <ele>-13.73</ele>
        <time>2021-12-18T11:56:36Z</time>
      </trkpt>
      <trkpt lat="51.378238219767809" lon="4.405515901744366">
        <ele>-13.75</ele>
        <time>2021-12-18T11:56:44Z</time>
      </trkpt>
      <trkpt lat="51.378220953047276" lon="4.405516739934683">
        <ele>-13.76</ele>
        <time>2021-12-18T11:56:45Z</time>
      </trkpt>
      <trkpt lat="51.378029091283679" lon="4.405515315011144">
        <ele>-13.800000000000001</ele>
        <time>2021-12-18T11:56:56Z</time>
      </trkpt>
      <trkpt lat="51.378013584762812" lon="4.405515315011144">
        <ele>-13.81</ele>
        <time>2021-12-18T11:56:57Z</time>
      </trkpt>
      <trkpt lat="51.378002520650625" lon="4.405513973906636">
        <ele>-13.82</ele>
        <time>2021-12-18T11:56:58Z</time>
      </trkpt>
      <trkpt lat="51.377989193424582" lon="4.40551120787859">
        <ele>-13.82</ele>
        <time>2021-12-18T11:56:59Z</time>
      </trkpt>
      <trkpt lat="51.377972345799208" lon="4.405512297526002">
        <ele>-13.83</ele>
        <time>2021-12-18T11:57:00Z</time>
      </trkpt>
      <trkpt lat="51.37772910296917" lon="4.405556553974748">
        <ele>-13.84</ele>
        <time>2021-12-18T11:57:14Z</time>
      </trkpt>
      <trkpt lat="51.377669339999557" lon="4.405561415478587">
        <ele>-13.84</ele>
        <time>2021-12-18T11:57:18Z</time>
      </trkpt>
      <trkpt lat="51.37765584513545" lon="4.405549764633179">
        <ele>-13.85</ele>
        <time>2021-12-18T11:57:19Z</time>
      </trkpt>
      <trkpt lat="51.377641595900059" lon="4.405545741319656">
        <ele>-13.85</ele>
        <time>2021-12-18T11:57:20Z</time>
      </trkpt>
      <trkpt lat="51.377494828775525" lon="4.405567031353712">
        <ele>-13.84</ele>
        <time>2021-12-18T11:57:30Z</time>
      </trkpt>
      <trkpt lat="51.377478232607245" lon="4.405574658885598">
        <ele>-13.85</ele>
        <time>2021-12-18T11:57:31Z</time>
      </trkpt>
      <trkpt lat="51.377459960058331" lon="4.405569713562727">
        <ele>-13.84</ele>
        <time>2021-12-18T11:57:32Z</time>
      </trkpt>
      <trkpt lat="51.377442525699735" lon="4.405563762411475">
        <ele>-13.85</ele>
        <time>2021-12-18T11:57:33Z</time>
      </trkpt>
      <trkpt lat="51.377424588426948" lon="4.405560242012143">
        <ele>-13.85</ele>
        <time>2021-12-18T11:57:34Z</time>
      </trkpt>
      <trkpt lat="51.377413775771856" lon="4.405555296689272">
        <ele>-13.84</ele>
        <time>2021-12-18T11:57:35Z</time>
      </trkpt>
      <trkpt lat="51.377255525439978" lon="4.405500730499625">
        <ele>-13.85</ele>
        <time>2021-12-18T11:57:46Z</time>
      </trkpt>
      <trkpt lat="51.377242198213935" lon="4.405488912016153">
        <ele>-13.85</ele>
        <time>2021-12-18T11:57:47Z</time>
      </trkpt>
      <trkpt lat="51.377230128273368" lon="4.405474159866571">
        <ele>-13.85</ele>
        <time>2021-12-18T11:57:48Z</time>
      </trkpt>
      <trkpt lat="51.377220153808594" lon="4.405457731336355">
        <ele>-13.859999999999999</ele>
        <time>2021-12-18T11:57:49Z</time>
      </trkpt>
      <trkpt lat="51.377211520448327" lon="4.405441302806139">
        <ele>-13.85</ele>
        <time>2021-12-18T11:57:50Z</time>
      </trkpt>
      <trkpt lat="51.37720531783998" lon="4.405423700809479">
        <ele>-13.859999999999999</ele>
        <time>2021-12-18T11:57:51Z</time>
      </trkpt>
      <trkpt lat="51.377071542665362" lon="4.405168807134032">
        <ele>-13.890000000000001</ele>
        <time>2021-12-18T11:58:06Z</time>
      </trkpt>
      <trkpt lat="51.376937096938491" lon="4.404824059456587">
        <ele>-13.93</ele>
        <time>2021-12-18T11:58:25Z</time>
      </trkpt>
      <trkpt lat="51.376516157761216" lon="4.40380004234612">
        <ele>-14.02</ele>
        <time>2021-12-18T11:59:16Z</time>
      </trkpt>
      <trkpt lat="51.376355728134513" lon="4.4034902472049">
        <ele>-14.01</ele>
        <time>2021-12-18T11:59:31Z</time>
      </trkpt>
      <trkpt lat="51.376344244927168" lon="4.403462754562497">
        <ele>-14</ele>
        <time>2021-12-18T11:59:33Z</time>
      </trkpt>
      <trkpt lat="51.376227233558893" lon="4.403162430971861">
        <ele>-13.960000000000001</ele>
        <time>2021-12-18T11:59:49Z</time>
      </trkpt>
      <trkpt lat="51.376110641285777" lon="4.402863448485732">
        <ele>-13.91</ele>
        <time>2021-12-18T12:00:03Z</time>
      </trkpt>
      <trkpt lat="51.376077700406313" lon="4.402783736586571">
        <ele>-13.9</ele>
        <time>2021-12-18T12:00:07Z</time>
      </trkpt>
      <trkpt lat="51.375991031527519" lon="4.402622217312455">
        <ele>-13.880000000000001</ele>
        <time>2021-12-18T12:00:15Z</time>
      </trkpt>
      <trkpt lat="51.375978039577603" lon="4.402607884258032">
        <ele>-13.890000000000001</ele>
        <time>2021-12-18T12:00:16Z</time>
      </trkpt>
      <trkpt lat="51.375971334055066" lon="4.402586929500103">
        <ele>-13.880000000000001</ele>
        <time>2021-12-18T12:00:17Z</time>
      </trkpt>
      <trkpt lat="51.375884581357241" lon="4.402343099936843">
        <ele>-13.85</ele>
        <time>2021-12-18T12:00:31Z</time>
      </trkpt>
      <trkpt lat="51.375792799517512" lon="4.402111256495118">
        <ele>-13.789999999999999</ele>
        <time>2021-12-18T12:00:44Z</time>
      </trkpt>
      <trkpt lat="51.375686433166265" lon="4.401841191574931">
        <ele>-13.74</ele>
        <time>2021-12-18T12:00:57Z</time>
      </trkpt>
      <trkpt lat="51.375581156462431" lon="4.401582023128867">
        <ele>-13.69</ele>
        <time>2021-12-18T12:01:09Z</time>
      </trkpt>
      <trkpt lat="51.375567829236388" lon="4.401526870205998">
        <ele>-13.68</ele>
        <time>2021-12-18T12:01:12Z</time>
      </trkpt>
      <trkpt lat="51.37556305155158" lon="4.401510106399655">
        <ele>-13.67</ele>
        <time>2021-12-18T12:01:13Z</time>
      </trkpt>
      <trkpt lat="51.375516699627042" lon="4.401404075324535">
        <ele>-13.65</ele>
        <time>2021-12-18T12:01:19Z</time>
      </trkpt>
      <trkpt lat="51.375485267490149" lon="4.40136032178998">
        <ele>-13.630000000000001</ele>
        <time>2021-12-18T12:01:23Z</time>
      </trkpt>
      <trkpt lat="51.375434221699834" lon="4.401266695931554">
        <ele>-13.609999999999999</ele>
        <time>2021-12-18T12:01:28Z</time>
      </trkpt>
      <trkpt lat="51.375417625531554" lon="4.401250770315528">
        <ele>-13.6</ele>
        <time>2021-12-18T12:01:29Z</time>
      </trkpt>
      <trkpt lat="51.375357862561941" lon="4.401082629337907">
        <ele>-13.56</ele>
        <time>2021-12-18T12:01:37Z</time>
      </trkpt>
      <trkpt lat="51.375347301363945" lon="4.401057902723551">
        <ele>-13.550000000000001</ele>
        <time>2021-12-18T12:01:38Z</time>
      </trkpt>
      <trkpt lat="51.375334477052093" lon="4.401031835004687">
        <ele>-13.550000000000001</ele>
        <time>2021-12-18T12:01:39Z</time>
      </trkpt>
      <trkpt lat="51.375319641083479" lon="4.401004258543253">
        <ele>-13.539999999999999</ele>
        <time>2021-12-18T12:01:40Z</time>
      </trkpt>
      <trkpt lat="51.375305559486151" lon="4.400992104783654">
        <ele>-13.529999999999999</ele>
        <time>2021-12-18T12:01:41Z</time>
      </trkpt>
      <trkpt lat="51.375289466232061" lon="4.400988500565291">
        <ele>-13.52</ele>
        <time>2021-12-18T12:01:42Z</time>
      </trkpt>
      <trkpt lat="51.37527622282505" lon="4.40099386498332">
        <ele>-13.52</ele>
        <time>2021-12-18T12:01:43Z</time>
      </trkpt>
      <trkpt lat="51.375264320522547" lon="4.401003001257777">
        <ele>-13.51</ele>
        <time>2021-12-18T12:01:44Z</time>
      </trkpt>
      <trkpt lat="51.375254429876804" lon="4.401017166674137">
        <ele>-13.5</ele>
        <time>2021-12-18T12:01:45Z</time>
      </trkpt>
      <trkpt lat="51.37524688616395" lon="4.401032170280814">
        <ele>-13.49</ele>
        <time>2021-12-18T12:01:46Z</time>
      </trkpt>
      <trkpt lat="51.375234816223383" lon="4.401044826954603">
        <ele>-13.48</ele>
        <time>2021-12-18T12:01:47Z</time>
      </trkpt>
      <trkpt lat="51.375219812616706" lon="4.401057986542583">
        <ele>-13.470000000000001</ele>
        <time>2021-12-18T12:01:48Z</time>
      </trkpt>
      <trkpt lat="51.375073967501521" lon="4.4011883251369">
        <ele>-13.369999999999999</ele>
        <time>2021-12-18T12:01:59Z</time>
      </trkpt>
      <trkpt lat="51.375063238665462" lon="4.401196874678135">
        <ele>-13.359999999999999</ele>
        <time>2021-12-18T12:02:00Z</time>
      </trkpt>
      <trkpt lat="51.375021915882826" lon="4.401282789185643">
        <ele>-13.300000000000001</ele>
        <time>2021-12-18T12:02:06Z</time>
      </trkpt>
      <trkpt lat="51.375074135139585" lon="4.401250602677465">
        <ele>-13.24</ele>
        <time>2021-12-18T12:02:12Z</time>
      </trkpt>
      <trkpt lat="51.375091569498181" lon="4.401239957660437">
        <ele>-13.23</ele>
        <time>2021-12-18T12:02:13Z</time>
      </trkpt>
      <trkpt lat="51.375108500942588" lon="4.401242891326547">
        <ele>-13.24</ele>
        <time>2021-12-18T12:02:14Z</time>
      </trkpt>
      <trkpt lat="51.375250825658441" lon="4.401057483628392">
        <ele>13.48</ele>
        <time>2021-12-18T13:33:46Z</time>
      </trkpt>
      <trkpt lat="51.375328442081809" lon="4.401100315153599">
        <ele>13.359999999999999</ele>
        <time>2021-12-18T13:33:58Z</time>
      </trkpt>
      <trkpt lat="51.375427013263106" lon="4.401259822770953">
        <ele>13.279999999999999</ele>
        <time>2021-12-18T13:34:11Z</time>
      </trkpt>
      <trkpt lat="51.375556848943233" lon="4.401462832465768">
        <ele>13.050000000000001</ele>
        <time>2021-12-18T13:34:29Z</time>
      </trkpt>
      <trkpt lat="51.375928418710828" lon="4.402231872081757">
        <ele>12.24</ele>
        <time>2021-12-18T13:35:16Z</time>
      </trkpt>
      <trkpt lat="51.376007292419672" lon="4.402458518743515">
        <ele>11.98</ele>
        <time>2021-12-18T13:35:28Z</time>
      </trkpt>
      <trkpt lat="51.376220360398293" lon="4.402933856472373">
        <ele>11.41</ele>
        <time>2021-12-18T13:35:58Z</time>
      </trkpt>
      <trkpt lat="51.376233519986272" lon="4.402972245588899">
        <ele>11.359999999999999</ele>
        <time>2021-12-18T13:36:00Z</time>
      </trkpt>
      <trkpt lat="51.376345166936517" lon="4.403217751532793">
        <ele>11.1</ele>
        <time>2021-12-18T13:36:14Z</time>
      </trkpt>
      <trkpt lat="51.376481205224991" lon="4.403542131185532">
        <ele>10.77</ele>
        <time>2021-12-18T13:36:31Z</time>
      </trkpt>
      <trkpt lat="51.376719670370221" lon="4.40412207506597">
        <ele>10.25</ele>
        <time>2021-12-18T13:37:01Z</time>
      </trkpt>
      <trkpt lat="51.376735428348184" lon="4.404205475002527">
        <ele>10.210000000000001</ele>
        <time>2021-12-18T13:37:04Z</time>
      </trkpt>
      <trkpt lat="51.376884961500764" lon="4.404589030891657">
        <ele>9.869999999999999</ele>
        <time>2021-12-18T13:37:25Z</time>
      </trkpt>
      <trkpt lat="51.377001805230975" lon="4.404823472723365">
        <ele>9.630000000000001</ele>
        <time>2021-12-18T13:37:39Z</time>
      </trkpt>
      <trkpt lat="51.377033656463027" lon="4.404887426644564">
        <ele>9.58</ele>
        <time>2021-12-18T13:37:42Z</time>
      </trkpt>
      <trkpt lat="51.377098364755511" lon="4.405030673369765">
        <ele>9.449999999999999</ele>
        <time>2021-12-18T13:37:50Z</time>
      </trkpt>
      <trkpt lat="51.377206658944488" lon="4.405340971425176">
        <ele>9.23</ele>
        <time>2021-12-18T13:38:05Z</time>
      </trkpt>
      <trkpt lat="51.377300368621945" lon="4.40552880987525">
        <ele>8.93</ele>
        <time>2021-12-18T13:38:20Z</time>
      </trkpt>
      <trkpt lat="51.377443699166179" lon="4.405595110729337">
        <ele>8.699999999999999</ele>
        <time>2021-12-18T13:38:35Z</time>
      </trkpt>
      <trkpt lat="51.377625670284033" lon="4.405599720776081">
        <ele>8.44</ele>
        <time>2021-12-18T13:38:53Z</time>
      </trkpt>
      <trkpt lat="51.377689708024263" lon="4.405605755746365">
        <ele>8.4</ele>
        <time>2021-12-18T13:38:56Z</time>
      </trkpt>
      <trkpt lat="51.377714267000556" lon="4.405611958354712">
        <ele>8.380000000000001</ele>
        <time>2021-12-18T13:38:57Z</time>
      </trkpt>
      <trkpt lat="51.377736562862992" lon="4.405620843172073">
        <ele>8.369999999999999</ele>
        <time>2021-12-18T13:38:58Z</time>
      </trkpt>
      <trkpt lat="51.377759864553809" lon="4.405633164569736">
        <ele>8.35</ele>
        <time>2021-12-18T13:38:59Z</time>
      </trkpt>
      <trkpt lat="51.377794062718749" lon="4.405640624463558">
        <ele>8.34</ele>
        <time>2021-12-18T13:39:00Z</time>
      </trkpt>
      <trkpt lat="51.377831362187862" lon="4.405638696625829">
        <ele>8.32</ele>
        <time>2021-12-18T13:39:01Z</time>
      </trkpt>
      <trkpt lat="51.377863548696041" lon="4.405639115720987">
        <ele>8.300000000000001</ele>
        <time>2021-12-18T13:39:02Z</time>
      </trkpt>
      <trkpt lat="51.378214918076992" lon="4.405658142641187">
        <ele>8.119999999999999</ele>
        <time>2021-12-18T13:39:12Z</time>
      </trkpt>
      <trkpt lat="51.378524545580149" lon="4.405643306672573">
        <ele>7.99</ele>
        <time>2021-12-18T13:39:20Z</time>
      </trkpt>
      <trkpt lat="51.378923607990146" lon="4.40563291311264">
        <ele>7.82</ele>
        <time>2021-12-18T13:39:29Z</time>
      </trkpt>
      <trkpt lat="51.379486368969083" lon="4.405648251995444">
        <ele>7.63</ele>
        <time>2021-12-18T13:39:41Z</time>
      </trkpt>
      <trkpt lat="51.37984343804419" lon="4.405662920325995">
        <ele>7.57</ele>
        <time>2021-12-18T13:39:47Z</time>
      </trkpt>
      <trkpt lat="51.379900770261884" lon="4.405661160126329">
        <ele>7.56</ele>
        <time>2021-12-18T13:39:48Z</time>
      </trkpt>
      <trkpt lat="51.379955252632499" lon="4.40566660836339">
        <ele>7.55</ele>
        <time>2021-12-18T13:39:49Z</time>
      </trkpt>
      <trkpt lat="51.380452299490571" lon="4.405667027458549">
        <ele>7.46</ele>
        <time>2021-12-18T13:39:59Z</time>
      </trkpt>
      <trkpt lat="51.380507284775376" lon="4.405667195096612">
        <ele>7.46</ele>
        <time>2021-12-18T13:40:00Z</time>
      </trkpt>
      <trkpt lat="51.380549529567361" lon="4.405679851770401">
        <ele>7.44</ele>
        <time>2021-12-18T13:40:01Z</time>
      </trkpt>
      <trkpt lat="51.380603173747659" lon="4.405685551464558">
        <ele>7.44</ele>
        <time>2021-12-18T13:40:02Z</time>
      </trkpt>
      <trkpt lat="51.380662769079208" lon="4.405682450160384">
        <ele>7.44</ele>
        <time>2021-12-18T13:40:03Z</time>
      </trkpt>
      <trkpt lat="51.380728231742978" lon="4.405689155682921">
        <ele>7.43</ele>
        <time>2021-12-18T13:40:04Z</time>
      </trkpt>
      <trkpt lat="51.380776846781373" lon="4.405693346634507">
        <ele>7.43</ele>
        <time>2021-12-18T13:40:05Z</time>
      </trkpt>
      <trkpt lat="51.380929984152317" lon="4.40567884594202">
        <ele>7.41</ele>
        <time>2021-12-18T13:40:09Z</time>
      </trkpt>
      <trkpt lat="51.380946496501565" lon="4.405659567564726">
        <ele>7.4</ele>
        <time>2021-12-18T13:40:10Z</time>
      </trkpt>
      <trkpt lat="51.380959320813417" lon="4.405642887577415">
        <ele>7.4</ele>
        <time>2021-12-18T13:40:11Z</time>
      </trkpt>
      <trkpt lat="51.380977593362331" lon="4.40545504912734">
        <ele>8.359999999999999</ele>
        <time>2021-12-18T13:40:22Z</time>
      </trkpt>
      <trkpt lat="51.380941132083535" lon="4.405318172648549">
        <ele>8.32</ele>
        <time>2021-12-18T13:40:29Z</time>
      </trkpt>
      <trkpt lat="51.380916237831116" lon="4.40524734556675">
        <ele>8.289999999999999</ele>
        <time>2021-12-18T13:40:33Z</time>
      </trkpt>
      <trkpt lat="51.380740217864513" lon="4.404900502413511">
        <ele>8.23</ele>
        <time>2021-12-18T13:40:45Z</time>
      </trkpt>
      <trkpt lat="51.380497310310602" lon="4.404352745041251">
        <ele>8.119999999999999</ele>
        <time>2021-12-18T13:40:57Z</time>
      </trkpt>
      <trkpt lat="51.380318189039826" lon="4.403842706233263">
        <ele>8.029999999999999</ele>
        <time>2021-12-18T13:41:07Z</time>
      </trkpt>
      <trkpt lat="51.380124315619469" lon="4.403343731537461">
        <ele>7.97</ele>
        <time>2021-12-18T13:41:17Z</time>
      </trkpt>
      <trkpt lat="51.380103696137667" lon="4.403282124549151">
        <ele>7.96</ele>
        <time>2021-12-18T13:41:18Z</time>
      </trkpt>
      <trkpt lat="51.37989666312933" lon="4.402854228392243">
        <ele>7.87</ele>
        <time>2021-12-18T13:41:27Z</time>
      </trkpt>
      <trkpt lat="51.379769928753376" lon="4.40254233777523">
        <ele>5.21</ele>
        <time>2021-12-18T13:41:32Z</time>
      </trkpt>
      <trkpt lat="51.379551412537694" lon="4.402049398049712">
        <ele>5.1</ele>
        <time>2021-12-18T13:41:40Z</time>
      </trkpt>
      <trkpt lat="51.379523752257228" lon="4.40199064090848">
        <ele>5.07</ele>
        <time>2021-12-18T13:41:41Z</time>
      </trkpt>
      <trkpt lat="51.37949793599546" lon="4.401926686987281">
        <ele>5.07</ele>
        <time>2021-12-18T13:41:42Z</time>
      </trkpt>
      <trkpt lat="51.379474801942706" lon="4.401869187131524">
        <ele>5.06</ele>
        <time>2021-12-18T13:41:43Z</time>
      </trkpt>
      <trkpt lat="51.379452589899302" lon="4.401811687275767">
        <ele>5.04</ele>
        <time>2021-12-18T13:41:44Z</time>
      </trkpt>
      <trkpt lat="51.379429707303643" lon="4.401758294552565">
        <ele>5.03</ele>
        <time>2021-12-18T13:41:45Z</time>
      </trkpt>
      <trkpt lat="51.37918964959681" lon="4.401106517761946">
        <ele>4.82</ele>
        <time>2021-12-18T13:41:57Z</time>
      </trkpt>
      <trkpt lat="51.379159893840551" lon="4.401037450879812">
        <ele>4.8</ele>
        <time>2021-12-18T13:41:58Z</time>
      </trkpt>
      <trkpt lat="51.379128210246563" lon="4.400966204702854">
        <ele>4.78</ele>
        <time>2021-12-18T13:41:59Z</time>
      </trkpt>
      <trkpt lat="51.379098957404494" lon="4.40089370124042">
        <ele>4.77</ele>
        <time>2021-12-18T13:42:00Z</time>
      </trkpt>
      <trkpt lat="51.379073895514011" lon="4.400830082595348">
        <ele>4.75</ele>
        <time>2021-12-18T13:42:01Z</time>
      </trkpt>
      <trkpt lat="51.378889577463269" lon="4.400333119556308">
        <ele>4.61</ele>
        <time>2021-12-18T13:42:10Z</time>
      </trkpt>
      <trkpt lat="51.378704672679305" lon="4.399883262813091">
        <ele>4.47</ele>
        <time>2021-12-18T13:42:20Z</time>
      </trkpt>
      <trkpt lat="51.378530329093337" lon="4.399436004459858">
        <ele>4.34</ele>
        <time>2021-12-18T13:42:30Z</time>
      </trkpt>
      <trkpt lat="51.378514571115375" lon="4.399396441876888">
        <ele>4.33</ele>
        <time>2021-12-18T13:42:31Z</time>
      </trkpt>
      <trkpt lat="51.378376353532076" lon="4.399046497419477">
        <ele>3.43</ele>
        <time>2021-12-18T13:42:40Z</time>
      </trkpt>
      <trkpt lat="51.378188766539097" lon="4.398600580170751">
        <ele>3.32</ele>
        <time>2021-12-18T13:42:51Z</time>
      </trkpt>
      <trkpt lat="51.378056835383177" lon="4.398257760331035">
        <ele>3.24</ele>
        <time>2021-12-18T13:42:59Z</time>
      </trkpt>
      <trkpt lat="51.377880480140448" lon="4.397884765639901">
        <ele>3.14</ele>
        <time>2021-12-18T13:43:08Z</time>
      </trkpt>
      <trkpt lat="51.377694150432944" lon="4.397431556135416">
        <ele>3.02</ele>
        <time>2021-12-18T13:43:19Z</time>
      </trkpt>
      <trkpt lat="51.377544030547142" lon="4.397042971104384">
        <ele>2.93</ele>
        <time>2021-12-18T13:43:28Z</time>
      </trkpt>
      <trkpt lat="51.377495164051652" lon="4.396923864260316">
        <ele>2.91</ele>
        <time>2021-12-18T13:43:31Z</time>
      </trkpt>
      <trkpt lat="51.377478986978531" lon="4.396891929209232">
        <ele>2.9</ele>
        <time>2021-12-18T13:43:32Z</time>
      </trkpt>
      <trkpt lat="51.377464151009917" lon="4.396857563406229">
        <ele>2.88</ele>
        <time>2021-12-18T13:43:33Z</time>
      </trkpt>
      <trkpt lat="51.376852104440331" lon="4.395405063405633">
        <ele>1.56</ele>
        <time>2021-12-18T13:44:12Z</time>
      </trkpt>
      <trkpt lat="51.376833412796259" lon="4.395364578813314">
        <ele>1.54</ele>
        <time>2021-12-18T13:44:13Z</time>
      </trkpt>
      <trkpt lat="51.376813128590584" lon="4.395330380648375">
        <ele>1.53</ele>
        <time>2021-12-18T13:44:14Z</time>
      </trkpt>
      <trkpt lat="51.376742888242006" lon="4.395207837224007">
        <ele>1.43</ele>
        <time>2021-12-18T13:44:20Z</time>
      </trkpt>
      <trkpt lat="51.376644652336836" lon="4.395000385120511">
        <ele>1.31</ele>
        <time>2021-12-18T13:44:28Z</time>
      </trkpt>
      <trkpt lat="51.376583715900779" lon="4.394774911925197">
        <ele>1.21</ele>
        <time>2021-12-18T13:44:36Z</time>
      </trkpt>
      <trkpt lat="51.376578183844686" lon="4.394754124805331">
        <ele>1.18</ele>
        <time>2021-12-18T13:44:37Z</time>
      </trkpt>
      <trkpt lat="51.376571645960212" lon="4.39473400823772">
        <ele>1.19</ele>
        <time>2021-12-18T13:44:38Z</time>
      </trkpt>
      <trkpt lat="51.376387244090438" lon="4.394111568108201">
        <ele>-0.1</ele>
        <time>2021-12-18T13:45:16Z</time>
      </trkpt>
      <trkpt lat="51.375429863110185" lon="4.388907579705119">
        <ele>-5.5</ele>
        <time>2021-12-18T13:49:27Z</time>
      </trkpt>
      <trkpt lat="51.375422906130552" lon="4.388828035444021">
        <ele>-5.61</ele>
        <time>2021-12-18T13:49:30Z</time>
      </trkpt>
      <trkpt lat="51.375423744320869" lon="4.388797273859382">
        <ele>-5.61</ele>
        <time>2021-12-18T13:49:31Z</time>
      </trkpt>
      <trkpt lat="51.375419134274125" lon="4.388763997703791">
        <ele>-5.63</ele>
        <time>2021-12-18T13:49:32Z</time>
      </trkpt>
      <trkpt lat="51.375385690480471" lon="4.38855092972517">
        <ele>-5.9</ele>
        <time>2021-12-18T13:49:41Z</time>
      </trkpt>
      <trkpt lat="51.375386444851756" lon="4.388526286929846">
        <ele>-5.9</ele>
        <time>2021-12-18T13:49:42Z</time>
      </trkpt>
      <trkpt lat="51.375382505357265" lon="4.388504410162568">
        <ele>-5.95</ele>
        <time>2021-12-18T13:49:43Z</time>
      </trkpt>
      <trkpt lat="51.375364568084478" lon="4.388434588909149">
        <ele>-6.02</ele>
        <time>2021-12-18T13:49:46Z</time>
      </trkpt>
      <trkpt lat="51.375246718525887" lon="4.387217033654451">
        <ele>-7.43</ele>
        <time>2021-12-18T13:50:45Z</time>
      </trkpt>
      <trkpt lat="51.375250238925219" lon="4.387059202417731">
        <ele>-7.61</ele>
        <time>2021-12-18T13:50:52Z</time>
      </trkpt>
      <trkpt lat="51.37525275349617" lon="4.387025004252791">
        <ele>-7.59</ele>
        <time>2021-12-18T13:50:53Z</time>
      </trkpt>
      <trkpt lat="51.375260297209024" lon="4.386996254324913">
        <ele>-7.65</ele>
        <time>2021-12-18T13:50:54Z</time>
      </trkpt>
      <trkpt lat="51.375261722132564" lon="4.386969348415732">
        <ele>-7.67</ele>
        <time>2021-12-18T13:50:55Z</time>
      </trkpt>
      <trkpt lat="51.375261889770627" lon="4.386943951249123">
        <ele>-7.68</ele>
        <time>2021-12-18T13:50:56Z</time>
      </trkpt>
      <trkpt lat="51.375263230875134" lon="4.386914782226086">
        <ele>-7.71</ele>
        <time>2021-12-18T13:50:57Z</time>
      </trkpt>
      <trkpt lat="51.375260716304183" lon="4.386893576011062">
        <ele>-7.73</ele>
        <time>2021-12-18T13:50:58Z</time>
      </trkpt>
      <trkpt lat="51.375258537009358" lon="4.386875471100211">
        <ele>-7.78</ele>
        <time>2021-12-18T13:50:59Z</time>
      </trkpt>
      <trkpt lat="51.375232301652431" lon="4.386454280465841">
        <ele>-8.09</ele>
        <time>2021-12-18T13:51:16Z</time>
      </trkpt>
      <trkpt lat="51.375160636380315" lon="4.386073909699917">
        <ele>-8.44</ele>
        <time>2021-12-18T13:51:30Z</time>
      </trkpt>
      <trkpt lat="51.375088300555944" lon="4.385628579184413">
        <ele>-8.609999999999999</ele>
        <time>2021-12-18T13:51:47Z</time>
      </trkpt>
      <trkpt lat="51.375000961124897" lon="4.38521945849061">
        <ele>-8.890000000000001</ele>
        <time>2021-12-18T13:52:05Z</time>
      </trkpt>
      <trkpt lat="51.374935330823064" lon="4.384848810732365">
        <ele>-9.029999999999999</ele>
        <time>2021-12-18T13:52:21Z</time>
      </trkpt>
      <trkpt lat="51.374872550368309" lon="4.384429967030883">
        <ele>-9.17</ele>
        <time>2021-12-18T13:52:39Z</time>
      </trkpt>
      <trkpt lat="51.374785546213388" lon="4.384029731154442">
        <ele>-9.140000000000001</ele>
        <time>2021-12-18T13:52:57Z</time>
      </trkpt>
      <trkpt lat="51.374728046357632" lon="4.383761845529079">
        <ele>-9.17</ele>
        <time>2021-12-18T13:53:11Z</time>
      </trkpt>
      <trkpt lat="51.374717149883509" lon="4.383722534403205">
        <ele>-9.18</ele>
        <time>2021-12-18T13:53:13Z</time>
      </trkpt>
      <trkpt lat="51.374716982245445" lon="4.383704261854291">
        <ele>-9.18</ele>
        <time>2021-12-18T13:53:14Z</time>
      </trkpt>
      <trkpt lat="51.374634420499206" lon="4.383356496691704">
        <ele>-9.17</ele>
        <time>2021-12-18T13:53:30Z</time>
      </trkpt>
      <trkpt lat="51.374567868188024" lon="4.383046701550484">
        <ele>-9.140000000000001</ele>
        <time>2021-12-18T13:53:45Z</time>
      </trkpt>
      <trkpt lat="51.374503578990698" lon="4.382874453440309">
        <ele>-10.24</ele>
        <time>2021-12-18T13:53:56Z</time>
      </trkpt>
      <trkpt lat="51.374390171840787" lon="4.382875040173531">
        <ele>-10.26</ele>
        <time>2021-12-18T13:54:14Z</time>
      </trkpt>
      <trkpt lat="51.374368211254478" lon="4.38285056501627">
        <ele>-10.279999999999999</ele>
        <time>2021-12-18T13:54:17Z</time>
      </trkpt>
      <trkpt lat="51.37433803640306" lon="4.382824245840311">
        <ele>-10.279999999999999</ele>
        <time>2021-12-18T13:54:22Z</time>
      </trkpt>
      <trkpt lat="51.3743238709867" lon="4.382764734327793">
        <ele>-10.34</ele>
        <time>2021-12-18T13:54:32Z</time>
      </trkpt>
      <trkpt lat="51.374221108853817" lon="4.382521072402597">
        <ele>-10.4</ele>
        <time>2021-12-18T13:54:45Z</time>
      </trkpt>
      <trkpt lat="51.374110551550984" lon="4.382231310009956">
        <ele>-10.5</ele>
        <time>2021-12-18T13:54:59Z</time>
      </trkpt>
      <trkpt lat="51.374007873237133" lon="4.38195294700563">
        <ele>-10.69</ele>
        <time>2021-12-18T13:55:13Z</time>
      </trkpt>
      <trkpt lat="51.3729527592659" lon="4.377537360414863">
        <ele>-13.880000000000001</ele>
        <time>2021-12-18T13:58:42Z</time>
      </trkpt>
      <trkpt lat="51.372878411784768" lon="4.377301661297679">
        <ele>-14.050000000000001</ele>
        <time>2021-12-18T13:58:56Z</time>
      </trkpt>
      <trkpt lat="51.372819654643536" lon="4.377056322991848">
        <ele>-14.199999999999999</ele>
        <time>2021-12-18T13:59:07Z</time>
      </trkpt>
      <trkpt lat="51.372817726805806" lon="4.377028997987509">
        <ele>-14.220000000000001</ele>
        <time>2021-12-18T13:59:08Z</time>
      </trkpt>
      <trkpt lat="51.372765339910984" lon="4.376768907532096">
        <ele>-14.42</ele>
        <time>2021-12-18T13:59:20Z</time>
      </trkpt>
      <trkpt lat="51.372692165896297" lon="4.376515941694379">
        <ele>-14.619999999999999</ele>
        <time>2021-12-18T13:59:31Z</time>
      </trkpt>
      <trkpt lat="51.372619830071926" lon="4.37625702470541">
        <ele>-14.890000000000001</ele>
        <time>2021-12-18T13:59:44Z</time>
      </trkpt>
      <trkpt lat="51.372544560581446" lon="4.3759501632303">
        <ele>-15.220000000000001</ele>
        <time>2021-12-18T13:59:59Z</time>
      </trkpt>
      <trkpt lat="51.372293354943395" lon="4.374865209683776">
        <ele>-17.109999999999999</ele>
        <time>2021-12-18T14:00:50Z</time>
      </trkpt>
      <trkpt lat="51.372189503163099" lon="4.374519037082791">
        <ele>-17.420000000000002</ele>
        <time>2021-12-18T14:01:03Z</time>
      </trkpt>
      <trkpt lat="51.371875181794167" lon="4.372975258156657">
        <ele>-19.960000000000001</ele>
        <time>2021-12-18T14:02:21Z</time>
      </trkpt>
      <trkpt lat="51.371822878718376" lon="4.37248969450593">
        <ele>-20.370000000000001</ele>
        <time>2021-12-18T14:02:40Z</time>
      </trkpt>
      <trkpt lat="51.371749201789498" lon="4.372158022597432">
        <ele>-20.09</ele>
        <time>2021-12-18T14:02:51Z</time>
      </trkpt>
      <trkpt lat="51.371727744117379" lon="4.372126506641507">
        <ele>-20.140000000000001</ele>
        <time>2021-12-18T14:02:52Z</time>
      </trkpt>
      <trkpt lat="51.371714668348432" lon="4.37209633179009">
        <ele>-20.190000000000001</ele>
        <time>2021-12-18T14:02:53Z</time>
      </trkpt>
      <trkpt lat="51.371685331687331" lon="4.372019302099943">
        <ele>-20.239999999999998</ele>
        <time>2021-12-18T14:02:55Z</time>
      </trkpt>
      <trkpt lat="51.37155432254076" lon="4.371161246672273">
        <ele>-20.739999999999998</ele>
        <time>2021-12-18T14:03:13Z</time>
      </trkpt>
      <trkpt lat="51.371551807969809" lon="4.371104668825865">
        <ele>-20.760000000000002</ele>
        <time>2021-12-18T14:03:14Z</time>
      </trkpt>
      <trkpt lat="51.371557172387838" lon="4.3710614182055">
        <ele>-20.789999999999999</ele>
        <time>2021-12-18T14:03:15Z</time>
      </trkpt>
      <trkpt lat="51.371566811576486" lon="4.371010540053248">
        <ele>-20.809999999999999</ele>
        <time>2021-12-18T14:03:16Z</time>
      </trkpt>
      <trkpt lat="51.371581647545099" lon="4.370980281382799">
        <ele>-20.84</ele>
        <time>2021-12-18T14:03:17Z</time>
      </trkpt>
      <trkpt lat="51.371595058590174" lon="4.370962427929044">
        <ele>-20.879999999999999</ele>
        <time>2021-12-18T14:03:18Z</time>
      </trkpt>
      <trkpt lat="51.371604111045599" lon="4.370940132066608">
        <ele>-20.899999999999999</ele>
        <time>2021-12-18T14:03:19Z</time>
      </trkpt>
      <trkpt lat="51.371610062196851" lon="4.370899479836226">
        <ele>-20.93</ele>
        <time>2021-12-18T14:03:20Z</time>
      </trkpt>
      <trkpt lat="51.371625987812877" lon="4.370857235044241">
        <ele>-20.960000000000001</ele>
        <time>2021-12-18T14:03:21Z</time>
      </trkpt>
      <trkpt lat="51.371611570939422" lon="4.370709042996168">
        <ele>-21.039999999999999</ele>
        <time>2021-12-18T14:03:24Z</time>
      </trkpt>
      <trkpt lat="51.371746687218547" lon="4.370385250076652">
        <ele>-21.469999999999999</ele>
        <time>2021-12-18T14:03:38Z</time>
      </trkpt>
      <trkpt lat="51.371674770489335" lon="4.370031449943781">
        <ele>-21.710000000000001</ele>
        <time>2021-12-18T14:03:46Z</time>
      </trkpt>
      <trkpt lat="51.371521465480328" lon="4.369669100269675">
        <ele>-22.050000000000001</ele>
        <time>2021-12-18T14:04:00Z</time>
      </trkpt>
      <trkpt lat="51.371171772480011" lon="4.36736692674458">
        <ele>-24.059999999999999</ele>
        <time>2021-12-18T14:05:27Z</time>
      </trkpt>
      <trkpt lat="51.370800537988544" lon="4.367467593401671">
        <ele>-24.309999999999999</ele>
        <time>2021-12-18T14:05:37Z</time>
      </trkpt>
      <trkpt lat="51.370488228276372" lon="4.367514280602336">
        <ele>-24.539999999999999</ele>
        <time>2021-12-18T14:05:48Z</time>
      </trkpt>
      <trkpt lat="51.370382448658347" lon="4.367570104077458">
        <ele>-24.649999999999999</ele>
        <time>2021-12-18T14:05:53Z</time>
      </trkpt>
      <trkpt lat="51.36965892277658" lon="4.367683846503496">
        <ele>-24.989999999999998</ele>
        <time>2021-12-18T14:06:16Z</time>
      </trkpt>
      <trkpt lat="51.369300512596965" lon="4.367749644443393">
        <ele>-25</ele>
        <time>2021-12-18T14:06:17Z</time>
      </trkpt>
      <trkpt lat="51.369111835956573" lon="4.366738703101873">
        <ele>-25.190000000000001</ele>
        <time>2021-12-18T14:06:32Z</time>
      </trkpt>
      <trkpt lat="51.368963643908501" lon="4.366926457732916">
        <ele>-25.199999999999999</ele>
        <time>2021-12-18T14:06:33Z</time>
      </trkpt>
      <trkpt lat="51.367371501401067" lon="4.36804510653019">
        <ele>-27.73</ele>
        <time>2021-12-18T14:07:34Z</time>
      </trkpt>
      <trkpt lat="51.367346774786711" lon="4.368063462898135">
        <ele>-27.719999999999999</ele>
        <time>2021-12-18T14:07:35Z</time>
      </trkpt>
      <trkpt lat="51.366828940808773" lon="4.368566041812301">
        <ele>-27.629999999999999</ele>
        <time>2021-12-18T14:07:56Z</time>
      </trkpt>
      <trkpt lat="51.366772782057524" lon="4.368671150878072">
        <ele>-27.620000000000001</ele>
        <time>2021-12-18T14:07:57Z</time>
      </trkpt>
      <trkpt lat="51.366724586114287" lon="4.368762262165546">
        <ele>-27.600000000000001</ele>
        <time>2021-12-18T14:07:58Z</time>
      </trkpt>
      <trkpt lat="51.366672199219465" lon="4.368791515007615">
        <ele>-27.600000000000001</ele>
        <time>2021-12-18T14:07:59Z</time>
      </trkpt>
      <trkpt lat="51.366597767919302" lon="4.368853541091085">
        <ele>-27.579999999999998</ele>
        <time>2021-12-18T14:08:00Z</time>
      </trkpt>
      <trkpt lat="51.366546303033829" lon="4.36891095712781">
        <ele>-27.59</ele>
        <time>2021-12-18T14:08:01Z</time>
      </trkpt>
      <trkpt lat="51.366487797349691" lon="4.368952950462699">
        <ele>-27.600000000000001</ele>
        <time>2021-12-18T14:08:02Z</time>
      </trkpt>
      <trkpt lat="51.366420574486256" lon="4.368999805301428">
        <ele>-28.420000000000002</ele>
        <time>2021-12-18T14:08:03Z</time>
      </trkpt>
      <trkpt lat="51.366357626393437" lon="4.369048504158855">
        <ele>-28.41</ele>
        <time>2021-12-18T14:08:04Z</time>
      </trkpt>
      <trkpt lat="51.36628545820713" lon="4.369078846648336">
        <ele>-28.390000000000001</ele>
        <time>2021-12-18T14:08:05Z</time>
      </trkpt>
      <trkpt lat="51.366229467093945" lon="4.369129473343492">
        <ele>-28.370000000000001</ele>
        <time>2021-12-18T14:08:06Z</time>
      </trkpt>
      <trkpt lat="51.365424133837223" lon="4.369697095826268">
        <ele>-28.18</ele>
        <time>2021-12-18T14:08:26Z</time>
      </trkpt>
      <trkpt lat="51.365188267081976" lon="4.369933968409896">
        <ele>-28.059999999999999</ele>
        <time>2021-12-18T14:08:39Z</time>
      </trkpt>
      <trkpt lat="51.365141998976469" lon="4.369941428303719">
        <ele>-28.039999999999999</ele>
        <time>2021-12-18T14:08:41Z</time>
      </trkpt>
      <trkpt lat="51.365124145522714" lon="4.369935896247625">
        <ele>-28.030000000000001</ele>
        <time>2021-12-18T14:08:42Z</time>
      </trkpt>
      <trkpt lat="51.365107297897339" lon="4.369916366413236">
        <ele>-28.030000000000001</ele>
        <time>2021-12-18T14:08:43Z</time>
      </trkpt>
      <trkpt lat="51.365092461928725" lon="4.369910163804889">
        <ele>-28.010000000000002</ele>
        <time>2021-12-18T14:08:44Z</time>
      </trkpt>
      <trkpt lat="51.365065136924386" lon="4.369896501302719">
        <ele>-27.98</ele>
        <time>2021-12-18T14:08:46Z</time>
      </trkpt>
      <trkpt lat="51.365024987608194" lon="4.369831625372171">
        <ele>-27.949999999999999</ele>
        <time>2021-12-18T14:08:49Z</time>
      </trkpt>
      <trkpt lat="51.364993136376143" lon="4.369742525741458">
        <ele>-27.93</ele>
        <time>2021-12-18T14:08:53Z</time>
      </trkpt>
      <trkpt lat="51.364986347034574" lon="4.369707321748138">
        <ele>-27.91</ele>
        <time>2021-12-18T14:08:54Z</time>
      </trkpt>
      <trkpt lat="51.364979222416878" lon="4.369674380868673">
        <ele>-27.899999999999999</ele>
        <time>2021-12-18T14:08:55Z</time>
      </trkpt>
      <trkpt lat="51.364973019808531" lon="4.369653509929776">
        <ele>-27.890000000000001</ele>
        <time>2021-12-18T14:08:56Z</time>
      </trkpt>
      <trkpt lat="51.36496807448566" lon="4.36962584964931">
        <ele>-27.890000000000001</ele>
        <time>2021-12-18T14:08:57Z</time>
      </trkpt>
      <trkpt lat="51.36496514081955" lon="4.369603721424937">
        <ele>-27.879999999999999</ele>
        <time>2021-12-18T14:08:58Z</time>
      </trkpt>
      <trkpt lat="51.364914681762457" lon="4.369326699525118">
        <ele>-27.780000000000001</ele>
        <time>2021-12-18T14:09:09Z</time>
      </trkpt>
      <trkpt lat="51.364883752539754" lon="4.369176831096411">
        <ele>-27.739999999999998</ele>
        <time>2021-12-18T14:09:14Z</time>
      </trkpt>
      <trkpt lat="51.364873861894011" lon="4.369150511920452">
        <ele>-27.739999999999998</ele>
        <time>2021-12-18T14:09:15Z</time>
      </trkpt>
      <trkpt lat="51.364867240190506" lon="4.369125198572874">
        <ele>-27.73</ele>
        <time>2021-12-18T14:09:16Z</time>
      </trkpt>
      <trkpt lat="51.36485961265862" lon="4.369097454473376">
        <ele>-27.710000000000001</ele>
        <time>2021-12-18T14:09:17Z</time>
      </trkpt>
      <trkpt lat="51.36485324241221" lon="4.369049845263362">
        <ele>-27.699999999999999</ele>
        <time>2021-12-18T14:09:18Z</time>
      </trkpt>
      <trkpt lat="51.364845363423228" lon="4.36901556327939">
        <ele>-27.690000000000001</ele>
        <time>2021-12-18T14:09:19Z</time>
      </trkpt>
      <trkpt lat="51.364837987348437" lon="4.368979604914784">
        <ele>-27.690000000000001</ele>
        <time>2021-12-18T14:09:20Z</time>
      </trkpt>
      <trkpt lat="51.364829353988171" lon="4.368942640721798">
        <ele>-27.68</ele>
        <time>2021-12-18T14:09:21Z</time>
      </trkpt>
      <trkpt lat="51.364818960428238" lon="4.368905173614621">
        <ele>-27.670000000000002</ele>
        <time>2021-12-18T14:09:22Z</time>
      </trkpt>
      <trkpt lat="51.364807393401861" lon="4.368864689022303">
        <ele>-27.66</ele>
        <time>2021-12-18T14:09:23Z</time>
      </trkpt>
      <trkpt lat="51.364798089489341" lon="4.36882353387773">
        <ele>-27.649999999999999</ele>
        <time>2021-12-18T14:09:24Z</time>
      </trkpt>
      <trkpt lat="51.364746121689677" lon="4.368563862517476">
        <ele>-27.579999999999998</ele>
        <time>2021-12-18T14:09:30Z</time>
      </trkpt>
      <trkpt lat="51.364733716472983" lon="4.368458334356546">
        <ele>-27.559999999999999</ele>
        <time>2021-12-18T14:09:32Z</time>
      </trkpt>
      <trkpt lat="51.364674121141434" lon="4.367904122918844">
        <ele>-27.489999999999998</ele>
        <time>2021-12-18T14:09:41Z</time>
      </trkpt>
      <trkpt lat="51.364661464467645" lon="4.367846539244056">
        <ele>-27.469999999999999</ele>
        <time>2021-12-18T14:09:42Z</time>
      </trkpt>
      <trkpt lat="51.364655261859298" lon="4.367776717990637">
        <ele>-27.460000000000001</ele>
        <time>2021-12-18T14:09:43Z</time>
      </trkpt>
      <trkpt lat="51.364642605185509" lon="4.36772558838129">
        <ele>-27.460000000000001</ele>
        <time>2021-12-18T14:09:44Z</time>
      </trkpt>
      <trkpt lat="51.364631121978164" lon="4.367678062990308">
        <ele>-27.449999999999999</ele>
        <time>2021-12-18T14:09:45Z</time>
      </trkpt>
      <trkpt lat="51.364624332636595" lon="4.36763514764607">
        <ele>-27.43</ele>
        <time>2021-12-18T14:09:46Z</time>
      </trkpt>
      <trkpt lat="51.364620812237263" lon="4.367601117119193">
        <ele>-27.420000000000002</ele>
        <time>2021-12-18T14:09:47Z</time>
      </trkpt>
      <trkpt lat="51.364619890227914" lon="4.367558285593987">
        <ele>-27.41</ele>
        <time>2021-12-18T14:09:48Z</time>
      </trkpt>
      <trkpt lat="51.364593906328082" lon="4.367414452135563">
        <ele>-27.390000000000001</ele>
        <time>2021-12-18T14:09:52Z</time>
      </trkpt>
      <trkpt lat="51.36459088884294" lon="4.36738008633256">
        <ele>-27.379999999999999</ele>
        <time>2021-12-18T14:09:53Z</time>
      </trkpt>
      <trkpt lat="51.364577142521739" lon="4.367349157109857">
        <ele>-27.370000000000001</ele>
        <time>2021-12-18T14:09:54Z</time>
      </trkpt>
      <trkpt lat="51.364573035389185" lon="4.367316300049424">
        <ele>-27.359999999999999</ele>
        <time>2021-12-18T14:09:55Z</time>
      </trkpt>
      <trkpt lat="51.364569431170821" lon="4.367278246209025">
        <ele>-27.34</ele>
        <time>2021-12-18T14:09:56Z</time>
      </trkpt>
      <trkpt lat="51.364562893286347" lon="4.367234325036407">
        <ele>-27.350000000000001</ele>
        <time>2021-12-18T14:09:57Z</time>
      </trkpt>
      <trkpt lat="51.364454934373498" lon="4.366631247103214">
        <ele>-27.27</ele>
        <time>2021-12-18T14:10:09Z</time>
      </trkpt>
      <trkpt lat="51.364349741488695" lon="4.366190861910582">
        <ele>-27.23</ele>
        <time>2021-12-18T14:10:18Z</time>
      </trkpt>
      <trkpt lat="51.364005915820599" lon="4.365090569481254">
        <ele>-27.02</ele>
        <time>2021-12-18T14:11:00Z</time>
      </trkpt>
      <trkpt lat="51.363896699622273" lon="4.364796783775091">
        <ele>-26.949999999999999</ele>
        <time>2021-12-18T14:11:15Z</time>
      </trkpt>
      <trkpt lat="51.363878510892391" lon="4.364725956693292">
        <ele>-26.920000000000002</ele>
        <time>2021-12-18T14:11:20Z</time>
      </trkpt>
      <trkpt lat="51.363797876983881" lon="4.364398308098316">
        <ele>-26.809999999999999</ele>
        <time>2021-12-18T14:11:36Z</time>
      </trkpt>
      <trkpt lat="51.363725289702415" lon="4.364148024469614">
        <ele>-26.77</ele>
        <time>2021-12-18T14:11:45Z</time>
      </trkpt>
      <trkpt lat="51.363641889765859" lon="4.363340092822909">
        <ele>-26.649999999999999</ele>
        <time>2021-12-18T14:12:18Z</time>
      </trkpt>
      <trkpt lat="51.363622108474374" lon="4.363089222460985">
        <ele>-26.640000000000001</ele>
        <time>2021-12-18T14:12:28Z</time>
      </trkpt>
      <trkpt lat="51.363614229485393" lon="4.363064579665661">
        <ele>-26.640000000000001</ele>
        <time>2021-12-18T14:12:29Z</time>
      </trkpt>
      <trkpt lat="51.36350610293448" lon="4.362723184749484">
        <ele>-26.629999999999999</ele>
        <time>2021-12-18T14:12:41Z</time>
      </trkpt>
      <trkpt lat="51.363480370491743" lon="4.362505590543151">
        <ele>-26.609999999999999</ele>
        <time>2021-12-18T14:12:47Z</time>
      </trkpt>
      <trkpt lat="51.363476430997252" lon="4.362479858100414">
        <ele>-26.609999999999999</ele>
        <time>2021-12-18T14:12:48Z</time>
      </trkpt>
      <trkpt lat="51.363467965275049" lon="4.362455382943153">
        <ele>-26.59</ele>
        <time>2021-12-18T14:12:49Z</time>
      </trkpt>
      <trkpt lat="51.363394791260362" lon="4.362273328006268">
        <ele>-26.559999999999999</ele>
        <time>2021-12-18T14:12:57Z</time>
      </trkpt>
      <trkpt lat="51.363372160121799" lon="4.362228568643332">
        <ele>-26.550000000000001</ele>
        <time>2021-12-18T14:12:59Z</time>
      </trkpt>
      <trkpt lat="51.363357324153185" lon="4.362207110971212">
        <ele>-26.550000000000001</ele>
        <time>2021-12-18T14:13:00Z</time>
      </trkpt>
      <trkpt lat="51.363341063261032" lon="4.362189006060362">
        <ele>-26.539999999999999</ele>
        <time>2021-12-18T14:13:01Z</time>
      </trkpt>
      <trkpt lat="51.363327903673053" lon="4.362158663570881">
        <ele>-26.539999999999999</ele>
        <time>2021-12-18T14:13:02Z</time>
      </trkpt>
      <trkpt lat="51.363323293626308" lon="4.362136702984572">
        <ele>-26.530000000000001</ele>
        <time>2021-12-18T14:13:03Z</time>
      </trkpt>
      <trkpt lat="51.363303009420633" lon="4.362049698829651">
        <ele>-26.52</ele>
        <time>2021-12-18T14:13:06Z</time>
      </trkpt>
      <trkpt lat="51.363290101289749" lon="4.361906703561544">
        <ele>-26.48</ele>
        <time>2021-12-18T14:13:13Z</time>
      </trkpt>
      <trkpt lat="51.363283898681402" lon="4.361863369122148">
        <ele>-26.469999999999999</ele>
        <time>2021-12-18T14:13:15Z</time>
      </trkpt>
      <trkpt lat="51.3632823061198" lon="4.361840067431331">
        <ele>-26.469999999999999</ele>
        <time>2021-12-18T14:13:16Z</time>
      </trkpt>
      <trkpt lat="51.363274175673723" lon="4.36181073077023">
        <ele>-26.460000000000001</ele>
        <time>2021-12-18T14:13:17Z</time>
      </trkpt>
      <trkpt lat="51.363276271149516" lon="4.361783908680081">
        <ele>-26.460000000000001</ele>
        <time>2021-12-18T14:13:18Z</time>
      </trkpt>
      <trkpt lat="51.36327501386404" lon="4.361729174852371">
        <ele>-26.449999999999999</ele>
        <time>2021-12-18T14:13:20Z</time>
      </trkpt>
      <trkpt lat="51.363272918388247" lon="4.361716434359551">
        <ele>-26.449999999999999</ele>
        <time>2021-12-18T14:13:21Z</time>
      </trkpt>
      <trkpt lat="51.363265039399266" lon="4.36167829670012">
        <ele>-26.449999999999999</ele>
        <time>2021-12-18T14:13:22Z</time>
      </trkpt>
      <trkpt lat="51.363264704123139" lon="4.361655414104462">
        <ele>-26.449999999999999</ele>
        <time>2021-12-18T14:13:23Z</time>
      </trkpt>
      <trkpt lat="51.363263530656695" lon="4.361639823764563">
        <ele>-26.440000000000001</ele>
        <time>2021-12-18T14:13:24Z</time>
      </trkpt>
      <trkpt lat="51.363264955580235" lon="4.361615851521492">
        <ele>-26.440000000000001</ele>
        <time>2021-12-18T14:13:25Z</time>
      </trkpt>
      <trkpt lat="51.363261770457029" lon="4.361592549830675">
        <ele>-26.43</ele>
        <time>2021-12-18T14:13:26Z</time>
      </trkpt>
      <trkpt lat="51.36325690895319" lon="4.361567823216319">
        <ele>-26.43</ele>
        <time>2021-12-18T14:13:27Z</time>
      </trkpt>
      <trkpt lat="51.363217011094093" lon="4.361306475475431">
        <ele>-26.370000000000001</ele>
        <time>2021-12-18T14:13:39Z</time>
      </trkpt>
      <trkpt lat="51.363090528175235" lon="4.361271522939205">
        <ele>-26.289999999999999</ele>
        <time>2021-12-18T14:13:50Z</time>
      </trkpt>
      <trkpt lat="51.36307368054986" lon="4.361259872093797">
        <ele>-26.289999999999999</ele>
        <time>2021-12-18T14:13:51Z</time>
      </trkpt>
      <trkpt lat="51.362941330298781" lon="4.361248221248388">
        <ele>-26.219999999999999</ele>
        <time>2021-12-18T14:14:02Z</time>
      </trkpt>
      <trkpt lat="51.362923812121153" lon="4.361264565959573">
        <ele>-26.219999999999999</ele>
        <time>2021-12-18T14:14:03Z</time>
      </trkpt>
      <trkpt lat="51.362682664766908" lon="4.361505126580596">
        <ele>-26.219999999999999</ele>
        <time>2021-12-18T14:14:34Z</time>
      </trkpt>
      <trkpt lat="51.362527851015329" lon="4.361633704975247">
        <ele>-26.239999999999998</ele>
        <time>2021-12-18T14:14:42Z</time>
      </trkpt>
      <trkpt lat="51.361798960715532" lon="4.361404879018664">
        <ele>-24.07</ele>
        <time>2021-12-18T14:15:41Z</time>
      </trkpt>
      <trkpt lat="51.361547168344259" lon="4.361323323100805">
        <ele>-23.030000000000001</ele>
        <time>2021-12-18T14:16:03Z</time>
      </trkpt>
      <trkpt lat="51.361352372914553" lon="4.361233804374933">
        <ele>-23.27</ele>
        <time>2021-12-18T14:16:25Z</time>
      </trkpt>
      <trkpt lat="51.361238295212388" lon="4.361150991171598">
        <ele>-27.609999999999999</ele>
        <time>2021-12-18T14:16:37Z</time>
      </trkpt>
      <trkpt lat="51.361211389303207" lon="4.361093239858747">
        <ele>-25.07</ele>
        <time>2021-12-18T14:16:38Z</time>
      </trkpt>
      <trkpt lat="51.360942497849464" lon="4.360690321773291">
        <ele>-25.300000000000001</ele>
        <time>2021-12-18T14:16:59Z</time>
      </trkpt>
      <trkpt lat="51.360898492857814" lon="4.360646232962608">
        <ele>-25.32</ele>
        <time>2021-12-18T14:17:02Z</time>
      </trkpt>
      <trkpt lat="51.360745187848806" lon="4.360486054793">
        <ele>-25.449999999999999</ele>
        <time>2021-12-18T14:17:27Z</time>
      </trkpt>
      <trkpt lat="51.359410872682929" lon="4.359965706244111">
        <ele>-25.48</ele>
        <time>2021-12-18T14:19:24Z</time>
      </trkpt>
      <trkpt lat="51.359317163005471" lon="4.359894040971994">
        <ele>-28.809999999999999</ele>
        <time>2021-12-18T14:19:30Z</time>
      </trkpt>
      <trkpt lat="51.359308529645205" lon="4.359885323792696">
        <ele>-28.809999999999999</ele>
        <time>2021-12-18T14:19:31Z</time>
      </trkpt>
      <trkpt lat="51.359086828306317" lon="4.359656246379018">
        <ele>-28.879999999999999</ele>
        <time>2021-12-18T14:19:50Z</time>
      </trkpt>
      <trkpt lat="51.358963949605823" lon="4.359569577500224">
        <ele>-28.899999999999999</ele>
        <time>2021-12-18T14:19:59Z</time>
      </trkpt>
      <trkpt lat="51.358856158331037" lon="4.359598495066166">
        <ele>-28.93</ele>
        <time>2021-12-18T14:20:17Z</time>
      </trkpt>
      <trkpt lat="51.358775272965431" lon="4.361288202926517">
        <ele>-29.440000000000001</ele>
        <time>2021-12-18T14:21:24Z</time>
      </trkpt>
      <trkpt lat="51.358325080946088" lon="4.361216621473432">
        <ele>-30.02</ele>
        <time>2021-12-18T14:22:02Z</time>
      </trkpt>
      <trkpt lat="51.358194993808866" lon="4.361287783831358">
        <ele>-30.289999999999999</ele>
        <time>2021-12-18T14:22:20Z</time>
      </trkpt>
      <trkpt lat="51.358181918039918" lon="4.361320724710822">
        <ele>-27.969999999999999</ele>
        <time>2021-12-18T14:22:22Z</time>
      </trkpt>
      <trkpt lat="51.358144534751773" lon="4.3613235745579">
        <ele>-28.02</ele>
        <time>2021-12-18T14:22:26Z</time>
      </trkpt>
      <trkpt lat="51.357895592227578" lon="4.361357605084777">
        <ele>-27.399999999999999</ele>
        <time>2021-12-18T14:22:42Z</time>
      </trkpt>
      <trkpt lat="51.357752764597535" lon="4.361225673928857">
        <ele>-27.59</ele>
        <time>2021-12-18T14:22:59Z</time>
      </trkpt>
      <trkpt lat="51.357043152675033" lon="4.361025597900152">
        <ele>-30.23</ele>
        <time>2021-12-18T14:23:41Z</time>
      </trkpt>
      <trkpt lat="51.356711816042662" lon="4.360911101102829">
        <ele>-30.370000000000001</ele>
        <time>2021-12-18T14:24:07Z</time>
      </trkpt>
      <trkpt lat="51.356571838259697" lon="4.360686633735895">
        <ele>-30.420000000000002</ele>
        <time>2021-12-18T14:24:16Z</time>
      </trkpt>
      <trkpt lat="51.356534706428647" lon="4.36064824461937">
        <ele>-30.440000000000001</ele>
        <time>2021-12-18T14:24:19Z</time>
      </trkpt>
      <trkpt lat="51.355913691222668" lon="4.360306179150939">
        <ele>-29.879999999999999</ele>
        <time>2021-12-18T14:24:51Z</time>
      </trkpt>
      <trkpt lat="51.355699868872762" lon="4.360262844711542">
        <ele>-29.91</ele>
        <time>2021-12-18T14:24:58Z</time>
      </trkpt>
      <trkpt lat="51.355614541098475" lon="4.359981212764978">
        <ele>-29.969999999999999</ele>
        <time>2021-12-18T14:25:11Z</time>
      </trkpt>
      <trkpt lat="51.355331651866436" lon="4.360545482486486">
        <ele>-29.940000000000001</ele>
        <time>2021-12-18T14:25:31Z</time>
      </trkpt>
      <trkpt lat="51.35529519058764" lon="4.360589990392327">
        <ele>-29.93</ele>
        <time>2021-12-18T14:25:32Z</time>
      </trkpt>
      <trkpt lat="51.355269709601998" lon="4.360616141930223">
        <ele>-29.93</ele>
        <time>2021-12-18T14:25:33Z</time>
      </trkpt>
      <trkpt lat="51.355253113433719" lon="4.360662242397666">
        <ele>-29.91</ele>
        <time>2021-12-18T14:25:34Z</time>
      </trkpt>
      <trkpt lat="51.354905515909195" lon="4.361266661435366">
        <ele>-29.84</ele>
        <time>2021-12-18T14:25:50Z</time>
      </trkpt>
      <trkpt lat="51.354870982468128" lon="4.361320892348886">
        <ele>-29.829999999999998</ele>
        <time>2021-12-18T14:25:51Z</time>
      </trkpt>
      <trkpt lat="51.354849860072136" lon="4.361341511830688">
        <ele>-29.82</ele>
        <time>2021-12-18T14:25:52Z</time>
      </trkpt>
      <trkpt lat="51.354834353551269" lon="4.361384510993958">
        <ele>-29.809999999999999</ele>
        <time>2021-12-18T14:25:53Z</time>
      </trkpt>
      <trkpt lat="51.354183750227094" lon="4.362424788996577">
        <ele>-29.559999999999999</ele>
        <time>2021-12-18T14:26:26Z</time>
      </trkpt>
      <trkpt lat="51.354043856263161" lon="4.362580608576536">
        <ele>-29.5</ele>
        <time>2021-12-18T14:26:33Z</time>
      </trkpt>
      <trkpt lat="51.353699862957001" lon="4.362970618531108">
        <ele>-31.690000000000001</ele>
        <time>2021-12-18T14:26:41Z</time>
      </trkpt>
      <trkpt lat="51.353610008955002" lon="4.362732321023941">
        <ele>-31.609999999999999</ele>
        <time>2021-12-18T14:26:49Z</time>
      </trkpt>
      <trkpt lat="51.352969128638506" lon="4.361414769664407">
        <ele>-31.109999999999999</ele>
        <time>2021-12-18T14:28:04Z</time>
      </trkpt>
      <trkpt lat="51.352825295180082" lon="4.361085528507829">
        <ele>-31.059999999999999</ele>
        <time>2021-12-18T14:28:18Z</time>
      </trkpt>
      <trkpt lat="51.352768801152706" lon="4.360911352559924">
        <ele>-31.039999999999999</ele>
        <time>2021-12-18T14:28:27Z</time>
      </trkpt>
      <trkpt lat="51.352556571364403" lon="4.360315483063459">
        <ele>-30.98</ele>
        <time>2021-12-18T14:28:52Z</time>
      </trkpt>
      <trkpt lat="51.352439559996128" lon="4.360097805038095">
        <ele>-30.98</ele>
        <time>2021-12-18T14:29:05Z</time>
      </trkpt>
      <trkpt lat="51.352292625233531" lon="4.359756577759981">
        <ele>-30.949999999999999</ele>
        <time>2021-12-18T14:29:21Z</time>
      </trkpt>
      <trkpt lat="51.352141331881285" lon="4.359460948035121">
        <ele>-30.93</ele>
        <time>2021-12-18T14:29:38Z</time>
      </trkpt>
      <trkpt lat="51.352117443457246" lon="4.359349803999066">
        <ele>-30.949999999999999</ele>
        <time>2021-12-18T14:29:46Z</time>
      </trkpt>
      <trkpt lat="51.351899849250913" lon="4.35899474658072">
        <ele>-30.940000000000001</ele>
        <time>2021-12-18T14:30:01Z</time>
      </trkpt>
      <trkpt lat="51.351780323311687" lon="4.358762064948678">
        <ele>-30.859999999999999</ele>
        <time>2021-12-18T14:30:19Z</time>
      </trkpt>
      <trkpt lat="51.351641938090324" lon="4.358450844883919">
        <ele>-30.800000000000001</ele>
        <time>2021-12-18T14:30:36Z</time>
      </trkpt>
      <trkpt lat="51.351493913680315" lon="4.358105091378093">
        <ele>-31.559999999999999</ele>
        <time>2021-12-18T14:30:54Z</time>
      </trkpt>
      <trkpt lat="51.351308925077319" lon="4.357706112787128">
        <ele>-31.48</ele>
        <time>2021-12-18T14:31:11Z</time>
      </trkpt>
      <trkpt lat="51.350950263440609" lon="4.357003122568131">
        <ele>-31.41</ele>
        <time>2021-12-18T14:31:50Z</time>
      </trkpt>
      <trkpt lat="51.350813638418913" lon="4.35674462467432">
        <ele>-32.140000000000001</ele>
        <time>2021-12-18T14:32:05Z</time>
      </trkpt>
      <trkpt lat="51.350659411400557" lon="4.356475984677672">
        <ele>-32.100000000000001</ele>
        <time>2021-12-18T14:32:20Z</time>
      </trkpt>
      <trkpt lat="51.350687658414245" lon="4.356165351346135">
        <ele>-32.020000000000003</ele>
        <time>2021-12-18T14:32:36Z</time>
      </trkpt>
      <trkpt lat="51.350664691999555" lon="4.355949768796563">
        <ele>-32.759999999999998</ele>
        <time>2021-12-18T14:32:44Z</time>
      </trkpt>
      <trkpt lat="51.350670056417584" lon="4.355780789628625">
        <ele>-32.729999999999997</ele>
        <time>2021-12-18T14:32:50Z</time>
      </trkpt>
      <trkpt lat="51.35068497620523" lon="4.355744998902082">
        <ele>-32.710000000000001</ele>
        <time>2021-12-18T14:32:52Z</time>
      </trkpt>
      <trkpt lat="51.350693525746465" lon="4.355694958940148">
        <ele>-32.700000000000003</ele>
        <time>2021-12-18T14:32:54Z</time>
      </trkpt>
      <trkpt lat="51.350683886557817" lon="4.355582976713777">
        <ele>-32.68</ele>
        <time>2021-12-18T14:32:58Z</time>
      </trkpt>
      <trkpt lat="51.350683299824595" lon="4.35541408136487">
        <ele>-32.630000000000003</ele>
        <time>2021-12-18T14:33:05Z</time>
      </trkpt>
      <trkpt lat="51.350704338401556" lon="4.3553227186203">
        <ele>-32.600000000000001</ele>
        <time>2021-12-18T14:33:11Z</time>
      </trkpt>
      <trkpt lat="51.350751025602221" lon="4.355084924027324">
        <ele>-32.57</ele>
        <time>2021-12-18T14:33:24Z</time>
      </trkpt>
      <trkpt lat="51.350853955373168" lon="4.351084744557738">
        <ele>-34</ele>
        <time>2021-12-18T14:36:26Z</time>
      </trkpt>
      <trkpt lat="51.350742559880018" lon="4.350717617198825">
        <ele>-34.219999999999999</ele>
        <time>2021-12-18T14:36:45Z</time>
      </trkpt>
      <trkpt lat="51.350305443629622" lon="4.349467623978853">
        <ele>-34.659999999999997</ele>
        <time>2021-12-18T14:37:44Z</time>
      </trkpt>
      <trkpt lat="51.35017485357821" lon="4.349195882678032">
        <ele>-34.740000000000002</ele>
        <time>2021-12-18T14:37:54Z</time>
      </trkpt>
      <trkpt lat="51.350005622953176" lon="4.348824983462691">
        <ele>-34.810000000000002</ele>
        <time>2021-12-18T14:38:09Z</time>
      </trkpt>
      <trkpt lat="51.349894562736154" lon="4.348552823066711">
        <ele>-34.859999999999999</ele>
        <time>2021-12-18T14:38:25Z</time>
      </trkpt>
      <trkpt lat="51.349849887192249" lon="4.348463891074061">
        <ele>-34.859999999999999</ele>
        <time>2021-12-18T14:38:30Z</time>
      </trkpt>
      <trkpt lat="51.349745281040668" lon="4.348126519471407">
        <ele>-34.82</ele>
        <time>2021-12-18T14:38:46Z</time>
      </trkpt>
      <trkpt lat="51.349681997671723" lon="4.34796885587275">
        <ele>-34.740000000000002</ele>
        <time>2021-12-18T14:39:00Z</time>
      </trkpt>
      <trkpt lat="51.349670514464378" lon="4.347921330481768">
        <ele>-34.710000000000001</ele>
        <time>2021-12-18T14:39:02Z</time>
      </trkpt>
      <trkpt lat="51.349641932174563" lon="4.347737934440374">
        <ele>-34.649999999999999</ele>
        <time>2021-12-18T14:39:13Z</time>
      </trkpt>
      <trkpt lat="51.349848126992583" lon="4.347643554210663">
        <ele>-34.549999999999997</ele>
        <time>2021-12-18T14:39:27Z</time>
      </trkpt>
      <trkpt lat="51.350379874929786" lon="4.347253628075123">
        <ele>-34.189999999999998</ele>
        <time>2021-12-18T14:40:12Z</time>
      </trkpt>
    </trkseg>
  </trk>

</gpx>